CES6038 UZTT-ZSPD
Flight info
| Callsign | CES6038 |
|---|---|
| Flight time | 6h 15m |
| Altitude | 33000 |
| Route | TISIB2A TISIB L143 RUDEK B351 BALVU L147 KAMUD/K0845S1005 A468 XKC B215 FKG W99 HAM B215 NUKTI W66 DKO W69 UPSUR DCT DOXAB W40 YQG W142 DALIM A593 VMB W161 SASAN SAS91A |
| Aircraft | A321/M-SDE3FGHIRWY/LB1 |
Departure
| Time | 2026-04-15 01:57 |
|---|---|
| Airport | Tashkent International Airport (UZTT) |
Arrival
| Time | 2026-04-15 08:12 |
|---|---|
| Airport | Shanghai Pudong International Airport (ZSPD) |
| Time | Latitude | Longitude | Altitude | Speed | Heading |
|---|---|---|---|---|---|
| 2026-04-15 01:46 | 41.25899 | 69.26602 | 1424 ft | 0 kts | 335° |
| 2026-04-15 01:50 | 41.25901 | 69.26601 | 1424 ft | 0 kts | 335° |
| 2026-04-15 01:51 | 41.25911 | 69.26595 | 1424 ft | 2 kts | 335° |
| 2026-04-15 01:51 | 41.25927 | 69.26582 | 1424 ft | 3 kts | 319° |
| 2026-04-15 01:51 | 41.25933 | 69.26552 | 1423 ft | 4 kts | 260° |
| 2026-04-15 01:51 | 41.25921 | 69.26507 | 1423 ft | 5 kts | 239° |
| 2026-04-15 01:52 | 41.25890 | 69.26467 | 1424 ft | 6 kts | 219° |
| 2026-04-15 01:52 | 41.25849 | 69.26423 | 1423 ft | 8 kts | 219° |
| 2026-04-15 01:52 | 41.25802 | 69.26370 | 1424 ft | 9 kts | 221° |
| 2026-04-15 01:52 | 41.25755 | 69.26305 | 1423 ft | 10 kts | 239° |
| 2026-04-15 01:53 | 41.25722 | 69.26215 | 1423 ft | 11 kts | 245° |
| 2026-04-15 01:53 | 41.25689 | 69.26121 | 1423 ft | 11 kts | 245° |
| 2026-04-15 01:53 | 41.25656 | 69.26025 | 1423 ft | 11 kts | 245° |
| 2026-04-15 01:53 | 41.25620 | 69.25925 | 1423 ft | 12 kts | 244° |
| 2026-04-15 01:54 | 41.25588 | 69.25823 | 1423 ft | 11 kts | 234° |
| 2026-04-15 01:54 | 41.25515 | 69.25805 | 1423 ft | 6 kts | 170° |
| 2026-04-15 01:54 | 41.25507 | 69.25807 | 1423 ft | 0 kts | 171° |
| 2026-04-15 01:55 | 41.25502 | 69.25808 | 1423 ft | 1 kts | 171° |
| 2026-04-15 01:55 | 41.25489 | 69.25811 | 1423 ft | 2 kts | 172° |
| 2026-04-15 01:55 | 41.25463 | 69.25816 | 1423 ft | 4 kts | 172° |
| 2026-04-15 01:55 | 41.25423 | 69.25826 | 1423 ft | 6 kts | 155° |
| 2026-04-15 01:56 | 41.25410 | 69.25881 | 1423 ft | 7 kts | 85° |
| 2026-04-15 01:56 | 41.25416 | 69.25948 | 1423 ft | 7 kts | 82° |
| 2026-04-15 01:56 | 41.25436 | 69.26130 | 1423 ft | 48 kts | 82° |
| 2026-04-15 01:56 | 41.25519 | 69.26879 | 1424 ft | 115 kts | 81° |
| 2026-04-15 01:57 | 41.25662 | 69.28206 | 1424 ft | 172 kts | 82° |
| 2026-04-15 01:57 | 41.25840 | 69.29887 | 1818 ft | 187 kts | 84° |
| 2026-04-15 01:57 | 41.26037 | 69.31619 | 2429 ft | 194 kts | 82° |
| 2026-04-15 01:57 | 41.26236 | 69.33388 | 3069 ft | 199 kts | 81° |
| 2026-04-15 01:58 | 41.26454 | 69.35198 | 3557 ft | 198 kts | 81° |
| 2026-04-15 01:58 | 41.26663 | 69.37041 | 3831 ft | 206 kts | 81° |
| 2026-04-15 01:58 | 41.26878 | 69.38966 | 4081 ft | 216 kts | 82° |
| 2026-04-15 01:58 | 41.27084 | 69.40972 | 4377 ft | 223 kts | 82° |
| 2026-04-15 01:59 | 41.27297 | 69.43023 | 4807 ft | 223 kts | 81° |
| 2026-04-15 01:59 | 41.27511 | 69.45051 | 5248 ft | 223 kts | 81° |
| 2026-04-15 01:59 | 41.27731 | 69.47088 | 5636 ft | 225 kts | 82° |
| 2026-04-15 01:59 | 41.27956 | 69.49157 | 6019 ft | 226 kts | 82° |
| 2026-04-15 02:00 | 41.28169 | 69.51231 | 6407 ft | 228 kts | 86° |
| 2026-04-15 02:00 | 41.27896 | 69.53267 | 6723 ft | 227 kts | 123° |
| 2026-04-15 02:00 | 41.26751 | 69.54621 | 7061 ft | 222 kts | 159° |
| 2026-04-15 02:00 | 41.25246 | 69.55022 | 7425 ft | 221 kts | 175° |
| 2026-04-15 02:01 | 41.23727 | 69.55248 | 7781 ft | 223 kts | 174° |
| 2026-04-15 02:01 | 41.22188 | 69.55508 | 8137 ft | 224 kts | 174° |
| 2026-04-15 02:01 | 41.20631 | 69.55698 | 8507 ft | 224 kts | 186° |
| 2026-04-15 02:01 | 41.19215 | 69.54970 | 8833 ft | 221 kts | 220° |
| 2026-04-15 02:02 | 41.18307 | 69.53306 | 9077 ft | 227 kts | 250° |
| 2026-04-15 02:02 | 41.18036 | 69.51236 | 9257 ft | 237 kts | 262° |
| 2026-04-15 02:02 | 41.17818 | 69.48963 | 9372 ft | 252 kts | 261° |
| 2026-04-15 02:02 | 41.17574 | 69.46622 | 9582 ft | 263 kts | 260° |
| 2026-04-15 02:03 | 41.17307 | 69.44154 | 9813 ft | 275 kts | 260° |
| 2026-04-15 02:03 | 41.17029 | 69.41615 | 10121 ft | 283 kts | 260° |
| 2026-04-15 02:03 | 41.16743 | 69.39011 | 10611 ft | 285 kts | 259° |
| 2026-04-15 02:03 | 41.16387 | 69.36409 | 11056 ft | 288 kts | 250° |
| 2026-04-15 02:04 | 41.15308 | 69.34177 | 11226 ft | 296 kts | 219° |
| 2026-04-15 02:04 | 41.13435 | 69.32979 | 11421 ft | 306 kts | 191° |
| 2026-04-15 02:04 | 41.11279 | 69.33047 | 11613 ft | 319 kts | 166° |
| 2026-04-15 02:04 | 41.09279 | 69.34391 | 11792 ft | 335 kts | 141° |
| 2026-04-15 02:05 | 41.07889 | 69.36930 | 11963 ft | 351 kts | 114° |
| 2026-04-15 02:05 | 41.07454 | 69.40143 | 12141 ft | 365 kts | 92° |
| 2026-04-15 02:05 | 41.07562 | 69.43560 | 12324 ft | 376 kts | 88° |
| 2026-04-15 02:05 | 41.07746 | 69.47035 | 12513 ft | 386 kts | 88° |
| 2026-04-15 02:06 | 41.08023 | 69.50597 | 12679 ft | 396 kts | 82° |
| 2026-04-15 02:06 | 41.08640 | 69.54213 | 12972 ft | 403 kts | 75° |
| 2026-04-15 02:06 | 41.09576 | 69.57690 | 13398 ft | 405 kts | 70° |
| 2026-04-15 02:06 | 41.10625 | 69.61154 | 13812 ft | 408 kts | 69° |
| 2026-04-15 02:07 | 41.11700 | 69.64675 | 14188 ft | 410 kts | 69° |
| 2026-04-15 02:07 | 41.12730 | 69.68200 | 14525 ft | 413 kts | 73° |
| 2026-04-15 02:07 | 41.13370 | 69.71929 | 14838 ft | 415 kts | 84° |
| 2026-04-15 02:07 | 41.13491 | 69.75739 | 15062 ft | 415 kts | 95° |
| 2026-04-15 02:08 | 41.13249 | 69.79549 | 15267 ft | 417 kts | 98° |
| 2026-04-15 02:08 | 41.12936 | 69.83365 | 15660 ft | 418 kts | 98° |
| 2026-04-15 02:08 | 41.12622 | 69.87215 | 16024 ft | 420 kts | 98° |
| 2026-04-15 02:08 | 41.12323 | 69.91082 | 16328 ft | 424 kts | 97° |
| 2026-04-15 02:09 | 41.12030 | 69.94989 | 16611 ft | 427 kts | 97° |
| 2026-04-15 02:09 | 41.11738 | 69.98903 | 16928 ft | 430 kts | 97° |
| 2026-04-15 02:09 | 41.11445 | 70.02836 | 17241 ft | 432 kts | 97° |
| 2026-04-15 02:09 | 41.11146 | 70.06818 | 17540 ft | 435 kts | 97° |
| 2026-04-15 02:10 | 41.10850 | 70.10773 | 17792 ft | 438 kts | 97° |
| 2026-04-15 02:10 | 41.10542 | 70.14831 | 18075 ft | 441 kts | 97° |
| 2026-04-15 02:10 | 41.10241 | 70.18831 | 18344 ft | 444 kts | 96° |
| 2026-04-15 02:10 | 41.10282 | 70.22942 | 18599 ft | 447 kts | 83° |
| 2026-04-15 02:11 | 41.11006 | 70.26916 | 18916 ft | 448 kts | 69° |
| 2026-04-15 02:11 | 41.12339 | 70.30689 | 19224 ft | 448 kts | 61° |
| 2026-04-15 02:11 | 41.13820 | 70.34280 | 19476 ft | 451 kts | 59° |
| 2026-04-15 02:11 | 41.15358 | 70.37939 | 19738 ft | 453 kts | 59° |
| 2026-04-15 02:12 | 41.16883 | 70.41591 | 19981 ft | 455 kts | 60° |
| 2026-04-15 02:12 | 41.18406 | 70.45281 | 20247 ft | 457 kts | 60° |
| 2026-04-15 02:12 | 41.19908 | 70.48956 | 20529 ft | 458 kts | 60° |
| 2026-04-15 02:12 | 41.21426 | 70.52689 | 20866 ft | 458 kts | 60° |
| 2026-04-15 02:13 | 41.22937 | 70.56418 | 21285 ft | 456 kts | 60° |
| 2026-04-15 02:13 | 41.24424 | 70.60096 | 21587 ft | 457 kts | 59° |
| 2026-04-15 02:13 | 41.25937 | 70.63845 | 21867 ft | 458 kts | 59° |
| 2026-04-15 02:13 | 41.27429 | 70.67548 | 22150 ft | 459 kts | 60° |
| 2026-04-15 02:14 | 41.28939 | 70.71295 | 22395 ft | 461 kts | 60° |
| 2026-04-15 02:14 | 41.30459 | 70.75074 | 22632 ft | 462 kts | 60° |
| 2026-04-15 02:14 | 41.31960 | 70.78813 | 22869 ft | 464 kts | 60° |
| 2026-04-15 02:14 | 41.33489 | 70.82623 | 23138 ft | 464 kts | 60° |
| 2026-04-15 02:15 | 41.34988 | 70.86365 | 23415 ft | 464 kts | 60° |
| 2026-04-15 02:15 | 41.36505 | 70.90160 | 23685 ft | 465 kts | 60° |
| 2026-04-15 02:15 | 41.38025 | 70.93968 | 23921 ft | 466 kts | 60° |
| 2026-04-15 02:15 | 41.39547 | 70.97785 | 24105 ft | 468 kts | 60° |
| 2026-04-15 02:16 | 41.41069 | 71.01604 | 24332 ft | 469 kts | 60° |
| 2026-04-15 02:16 | 41.42590 | 71.05423 | 24552 ft | 470 kts | 60° |
| 2026-04-15 02:16 | 41.44118 | 71.09265 | 24766 ft | 472 kts | 60° |
| 2026-04-15 02:16 | 41.45659 | 71.13150 | 24977 ft | 473 kts | 60° |
| 2026-04-15 02:17 | 41.47198 | 71.17036 | 25179 ft | 474 kts | 60° |
| 2026-04-15 02:17 | 41.48739 | 71.20929 | 25392 ft | 475 kts | 60° |
| 2026-04-15 02:17 | 41.50223 | 71.24813 | 25659 ft | 475 kts | 62° |
| 2026-04-15 02:17 | 41.51668 | 71.28742 | 25957 ft | 474 kts | 62° |
| 2026-04-15 02:18 | 41.53122 | 71.32729 | 26233 ft | 473 kts | 62° |
| 2026-04-15 02:18 | 41.54560 | 71.36677 | 26483 ft | 473 kts | 62° |
| 2026-04-15 02:18 | 41.55992 | 71.40602 | 26766 ft | 472 kts | 62° |
| 2026-04-15 02:18 | 41.57425 | 71.44527 | 27040 ft | 472 kts | 62° |
| 2026-04-15 02:19 | 41.58861 | 71.48457 | 27319 ft | 471 kts | 62° |
| 2026-04-15 02:19 | 41.60284 | 71.52356 | 27590 ft | 470 kts | 62° |
| 2026-04-15 02:19 | 41.61708 | 71.56259 | 27844 ft | 469 kts | 62° |
| 2026-04-15 02:19 | 41.63150 | 71.60216 | 28093 ft | 469 kts | 62° |
| 2026-04-15 02:20 | 41.64565 | 71.64105 | 28335 ft | 469 kts | 62° |
| 2026-04-15 02:20 | 41.66001 | 71.68054 | 28580 ft | 468 kts | 62° |
| 2026-04-15 02:20 | 41.67411 | 71.71941 | 28835 ft | 467 kts | 62° |
| 2026-04-15 02:20 | 41.68816 | 71.75822 | 29058 ft | 467 kts | 62° |
| 2026-04-15 02:21 | 41.70231 | 71.79736 | 29253 ft | 468 kts | 62° |
| 2026-04-15 02:21 | 41.71650 | 71.83638 | 29434 ft | 468 kts | 61° |
| 2026-04-15 02:21 | 41.73144 | 71.87513 | 29640 ft | 467 kts | 60° |
| 2026-04-15 02:21 | 41.74666 | 71.91358 | 29838 ft | 468 kts | 60° |
| 2026-04-15 02:22 | 41.76192 | 71.95207 | 29981 ft | 469 kts | 60° |
| 2026-04-15 02:22 | 41.77712 | 71.99048 | 30152 ft | 469 kts | 59° |
| 2026-04-15 02:22 | 41.79230 | 72.02904 | 30338 ft | 469 kts | 60° |
| 2026-04-15 02:23 | 41.82247 | 72.10611 | 30663 ft | 470 kts | 60° |
| 2026-04-15 02:23 | 41.83762 | 72.14494 | 30815 ft | 470 kts | 60° |
| 2026-04-15 02:23 | 41.85271 | 72.18368 | 30964 ft | 471 kts | 60° |
| 2026-04-15 02:23 | 41.86780 | 72.22247 | 31117 ft | 471 kts | 60° |
| 2026-04-15 02:24 | 41.88303 | 72.26172 | 31263 ft | 471 kts | 60° |
| 2026-04-15 02:24 | 41.91313 | 72.33941 | 31306 ft | 472 kts | 60° |
| 2026-04-15 02:25 | 41.94341 | 72.41778 | 31313 ft | 471 kts | 60° |
| 2026-04-15 02:25 | 41.97342 | 72.49565 | 31307 ft | 470 kts | 60° |
| 2026-04-15 02:26 | 42.00329 | 72.57337 | 31311 ft | 470 kts | 60° |
| 2026-04-15 02:26 | 42.03291 | 72.65065 | 31303 ft | 469 kts | 61° |
| 2026-04-15 02:27 | 42.06293 | 72.72915 | 31296 ft | 469 kts | 61° |
| 2026-04-15 02:27 | 42.09268 | 72.80719 | 31295 ft | 469 kts | 61° |
| 2026-04-15 02:28 | 42.12244 | 72.88550 | 31283 ft | 469 kts | 61° |
| 2026-04-15 02:28 | 42.15204 | 72.96359 | 31281 ft | 469 kts | 61° |
| 2026-04-15 02:29 | 42.18158 | 73.04174 | 31280 ft | 468 kts | 61° |
| 2026-04-15 02:29 | 42.21092 | 73.11956 | 31275 ft | 468 kts | 61° |
| 2026-04-15 02:30 | 42.24047 | 73.19783 | 31267 ft | 469 kts | 61° |
| 2026-04-15 02:30 | 42.27000 | 73.27629 | 31272 ft | 469 kts | 61° |
| 2026-04-15 02:31 | 42.29926 | 73.35425 | 31262 ft | 468 kts | 62° |
| 2026-04-15 02:31 | 42.32856 | 73.43254 | 31258 ft | 468 kts | 62° |
| 2026-04-15 02:32 | 42.35785 | 73.51113 | 31259 ft | 468 kts | 62° |
| 2026-04-15 02:32 | 42.38341 | 73.59166 | 31254 ft | 469 kts | 70° |
| 2026-04-15 02:33 | 42.39802 | 73.67699 | 31283 ft | 469 kts | 82° |
| 2026-04-15 02:33 | 42.40225 | 73.76486 | 31276 ft | 470 kts | 88° |
| 2026-04-15 02:34 | 42.40398 | 73.85276 | 31265 ft | 470 kts | 88° |
| 2026-04-15 02:34 | 42.40576 | 73.94112 | 31281 ft | 469 kts | 88° |
| 2026-04-15 02:35 | 42.40760 | 74.02906 | 31288 ft | 469 kts | 88° |
| 2026-04-15 02:35 | 42.40944 | 74.11696 | 31277 ft | 468 kts | 88° |
| 2026-04-15 02:36 | 42.41121 | 74.20461 | 31291 ft | 467 kts | 88° |
| 2026-04-15 02:36 | 42.41291 | 74.29222 | 31273 ft | 467 kts | 88° |
| 2026-04-15 02:37 | 42.41454 | 74.37942 | 31258 ft | 467 kts | 88° |
| 2026-04-15 02:37 | 42.41611 | 74.46691 | 31256 ft | 467 kts | 88° |
| 2026-04-15 02:38 | 42.41761 | 74.55452 | 31275 ft | 466 kts | 88° |
| 2026-04-15 02:38 | 42.41904 | 74.64168 | 31252 ft | 466 kts | 88° |
| 2026-04-15 02:39 | 42.42043 | 74.72955 | 31242 ft | 465 kts | 89° |
| 2026-04-15 02:39 | 42.42172 | 74.81628 | 31251 ft | 464 kts | 89° |
| 2026-04-15 02:40 | 42.42295 | 74.90350 | 31238 ft | 464 kts | 89° |
| 2026-04-15 02:40 | 42.42413 | 74.99083 | 31243 ft | 464 kts | 89° |
| 2026-04-15 02:41 | 42.42524 | 75.07760 | 31239 ft | 464 kts | 89° |
| 2026-04-15 02:41 | 42.42626 | 75.16488 | 31244 ft | 464 kts | 89° |
| 2026-04-15 02:42 | 42.42715 | 75.25225 | 31246 ft | 464 kts | 89° |
| 2026-04-15 02:42 | 42.42784 | 75.33937 | 31251 ft | 464 kts | 89° |
| 2026-04-15 02:43 | 42.42847 | 75.42630 | 31267 ft | 463 kts | 89° |
| 2026-04-15 02:43 | 42.42906 | 75.51352 | 31273 ft | 464 kts | 88° |
| 2026-04-15 02:44 | 42.42959 | 75.60036 | 31278 ft | 464 kts | 88° |
| 2026-04-15 02:44 | 42.43005 | 75.68761 | 31300 ft | 464 kts | 89° |
| 2026-04-15 02:45 | 42.43045 | 75.77459 | 31308 ft | 464 kts | 89° |
| 2026-04-15 02:45 | 42.43078 | 75.86190 | 31304 ft | 464 kts | 89° |
| 2026-04-15 02:46 | 42.43103 | 75.94874 | 31331 ft | 463 kts | 89° |
| 2026-04-15 02:46 | 42.43110 | 76.03585 | 31327 ft | 463 kts | 90° |
| 2026-04-15 02:47 | 42.42457 | 76.12249 | 31328 ft | 465 kts | 99° |
| 2026-04-15 02:47 | 42.40781 | 76.20634 | 31342 ft | 466 kts | 109° |
| 2026-04-15 02:48 | 42.38352 | 76.28761 | 31344 ft | 466 kts | 112° |
| 2026-04-15 02:48 | 42.35852 | 76.36837 | 31363 ft | 467 kts | 112° |
| 2026-04-15 02:49 | 42.33361 | 76.44905 | 31362 ft | 466 kts | 111° |
| 2026-04-15 02:49 | 42.30862 | 76.53003 | 31353 ft | 467 kts | 111° |
| 2026-04-15 02:50 | 42.28371 | 76.61058 | 31369 ft | 466 kts | 111° |
| 2026-04-15 02:50 | 42.25870 | 76.69130 | 31379 ft | 466 kts | 112° |
| 2026-04-15 02:51 | 42.23380 | 76.77140 | 31379 ft | 468 kts | 112° |
| 2026-04-15 02:51 | 42.20850 | 76.85252 | 31395 ft | 468 kts | 112° |
| 2026-04-15 02:52 | 42.18326 | 76.93323 | 31397 ft | 468 kts | 112° |
| 2026-04-15 02:52 | 42.15801 | 77.01369 | 31404 ft | 468 kts | 112° |
| 2026-04-15 02:53 | 42.13266 | 77.09424 | 31401 ft | 468 kts | 112° |
| 2026-04-15 02:53 | 42.10735 | 77.17442 | 31390 ft | 468 kts | 112° |
| 2026-04-15 02:54 | 42.08183 | 77.25502 | 31340 ft | 467 kts | 111° |
| 2026-04-15 02:54 | 42.05644 | 77.33499 | 31345 ft | 468 kts | 111° |
| 2026-04-15 02:55 | 42.03084 | 77.41541 | 31372 ft | 470 kts | 112° |
| 2026-04-15 02:55 | 42.00513 | 77.49589 | 31407 ft | 470 kts | 111° |
| 2026-04-15 02:56 | 41.97929 | 77.57652 | 31424 ft | 470 kts | 111° |
| 2026-04-15 02:56 | 41.95334 | 77.65726 | 31431 ft | 470 kts | 112° |
| 2026-04-15 02:57 | 41.92740 | 77.73772 | 31436 ft | 471 kts | 112° |
| 2026-04-15 02:57 | 41.90138 | 77.81825 | 31433 ft | 470 kts | 112° |
| 2026-04-15 02:58 | 41.87535 | 77.89850 | 31438 ft | 471 kts | 112° |
| 2026-04-15 02:58 | 41.84933 | 77.97852 | 31443 ft | 471 kts | 112° |
| 2026-04-15 02:59 | 41.82305 | 78.05910 | 31447 ft | 471 kts | 112° |
| 2026-04-15 02:59 | 41.79677 | 78.13944 | 31438 ft | 472 kts | 112° |
| 2026-04-15 03:00 | 41.77052 | 78.21946 | 31443 ft | 472 kts | 111° |
| 2026-04-15 03:00 | 41.74410 | 78.29974 | 31423 ft | 473 kts | 111° |
| 2026-04-15 03:01 | 41.71759 | 78.38011 | 31424 ft | 474 kts | 111° |
| 2026-04-15 03:01 | 41.69095 | 78.46057 | 31414 ft | 474 kts | 111° |
| 2026-04-15 03:02 | 41.66427 | 78.54102 | 31406 ft | 474 kts | 111° |
| 2026-04-15 03:02 | 41.63730 | 78.62211 | 31517 ft | 478 kts | 111° |
| 2026-04-15 03:02 | 41.62378 | 78.66264 | 31690 ft | 478 kts | 112° |
| 2026-04-15 03:03 | 41.61031 | 78.70296 | 31865 ft | 477 kts | 112° |
| 2026-04-15 03:03 | 41.59769 | 78.74343 | 32036 ft | 476 kts | 108° |
| 2026-04-15 03:03 | 41.58720 | 78.78562 | 32199 ft | 474 kts | 103° |
| 2026-04-15 03:03 | 41.57940 | 78.82815 | 32357 ft | 472 kts | 98° |
| 2026-04-15 03:04 | 41.57412 | 78.87169 | 32521 ft | 470 kts | 94° |
| 2026-04-15 03:04 | 41.57150 | 78.91513 | 32684 ft | 468 kts | 89° |
| 2026-04-15 03:04 | 41.57144 | 78.95817 | 32823 ft | 465 kts | 84° |
| 2026-04-15 03:04 | 41.57314 | 79.00129 | 32995 ft | 464 kts | 83° |
| 2026-04-15 03:05 | 41.57510 | 79.04391 | 33143 ft | 464 kts | 83° |
| 2026-04-15 03:05 | 41.57708 | 79.08675 | 33284 ft | 464 kts | 83° |
| 2026-04-15 03:05 | 41.57901 | 79.12968 | 33427 ft | 463 kts | 83° |
| 2026-04-15 03:06 | 41.58271 | 79.21535 | 33467 ft | 463 kts | 83° |
| 2026-04-15 03:06 | 41.58626 | 79.30111 | 33500 ft | 463 kts | 83° |
| 2026-04-15 03:07 | 41.58968 | 79.38628 | 33530 ft | 463 kts | 83° |
| 2026-04-15 03:07 | 41.59308 | 79.47202 | 33533 ft | 463 kts | 82° |
| 2026-04-15 03:08 | 41.59641 | 79.55808 | 33535 ft | 463 kts | 82° |
| 2026-04-15 03:08 | 41.59966 | 79.64364 | 33520 ft | 463 kts | 82° |
| 2026-04-15 03:09 | 41.60285 | 79.72920 | 33532 ft | 463 kts | 83° |
| 2026-04-15 03:09 | 41.60596 | 79.81470 | 33553 ft | 464 kts | 83° |
| 2026-04-15 03:10 | 41.60904 | 79.90094 | 33560 ft | 464 kts | 83° |
| 2026-04-15 03:10 | 41.61204 | 79.98646 | 33536 ft | 464 kts | 83° |
| 2026-04-15 03:11 | 41.61500 | 80.07272 | 33573 ft | 465 kts | 83° |
| 2026-04-15 03:11 | 41.61786 | 80.15834 | 33588 ft | 464 kts | 83° |
| 2026-04-15 03:12 | 41.62067 | 80.24403 | 33556 ft | 463 kts | 83° |
| 2026-04-15 03:12 | 41.62340 | 80.32971 | 33564 ft | 464 kts | 82° |
| 2026-04-15 03:13 | 41.62609 | 80.41544 | 33530 ft | 463 kts | 82° |
| 2026-04-15 03:13 | 41.62873 | 80.50156 | 33526 ft | 464 kts | 82° |
| 2026-04-15 03:14 | 41.63127 | 80.58718 | 33500 ft | 465 kts | 82° |
| 2026-04-15 03:14 | 41.63377 | 80.67329 | 33498 ft | 464 kts | 83° |
| 2026-04-15 03:15 | 41.63620 | 80.75953 | 33506 ft | 464 kts | 83° |
| 2026-04-15 03:15 | 41.63858 | 80.84524 | 33480 ft | 463 kts | 83° |
| 2026-04-15 03:16 | 41.64088 | 80.93099 | 33472 ft | 463 kts | 83° |
| 2026-04-15 03:16 | 41.64312 | 81.01705 | 33462 ft | 464 kts | 83° |
| 2026-04-15 03:17 | 41.64532 | 81.10290 | 33441 ft | 464 kts | 83° |
| 2026-04-15 03:17 | 41.64749 | 81.18867 | 33428 ft | 464 kts | 83° |
| 2026-04-15 03:18 | 41.64959 | 81.27457 | 33416 ft | 464 kts | 83° |
| 2026-04-15 03:18 | 41.65163 | 81.36062 | 33403 ft | 464 kts | 83° |
| 2026-04-15 03:19 | 41.65360 | 81.44664 | 33408 ft | 464 kts | 83° |
| 2026-04-15 03:19 | 41.65550 | 81.53203 | 33383 ft | 464 kts | 83° |
| 2026-04-15 03:20 | 41.65733 | 81.61785 | 33369 ft | 463 kts | 82° |
| 2026-04-15 03:20 | 41.65913 | 81.70406 | 33347 ft | 464 kts | 83° |
| 2026-04-15 03:21 | 41.66084 | 81.79047 | 33331 ft | 464 kts | 83° |
| 2026-04-15 03:21 | 41.66330 | 81.91920 | 33314 ft | 464 kts | 83° |
| 2026-04-15 03:22 | 41.66485 | 82.00538 | 33297 ft | 464 kts | 83° |
| 2026-04-15 03:22 | 41.66634 | 82.09087 | 33288 ft | 464 kts | 83° |
| 2026-04-15 03:23 | 41.66778 | 82.17743 | 33282 ft | 464 kts | 83° |
| 2026-04-15 03:23 | 41.66913 | 82.26307 | 33281 ft | 464 kts | 83° |
| 2026-04-15 03:24 | 41.67043 | 82.34929 | 33275 ft | 464 kts | 83° |
| 2026-04-15 03:24 | 41.67168 | 82.43497 | 33281 ft | 464 kts | 83° |
| 2026-04-15 03:25 | 41.67285 | 82.52138 | 33285 ft | 464 kts | 83° |
| 2026-04-15 03:25 | 41.67396 | 82.60734 | 33275 ft | 464 kts | 83° |
| 2026-04-15 03:26 | 41.67500 | 82.69346 | 33280 ft | 464 kts | 83° |
| 2026-04-15 03:26 | 41.67952 | 82.77894 | 33268 ft | 457 kts | 75° |
| 2026-04-15 03:27 | 41.69463 | 82.85998 | 33271 ft | 448 kts | 64° |
| 2026-04-15 03:27 | 41.71991 | 82.93544 | 33271 ft | 441 kts | 54° |
| 2026-04-15 03:28 | 41.75155 | 83.00452 | 33271 ft | 438 kts | 51° |
| 2026-04-15 03:28 | 41.78402 | 83.07343 | 33272 ft | 437 kts | 51° |
| 2026-04-15 03:29 | 41.81638 | 83.14258 | 33275 ft | 438 kts | 51° |
| 2026-04-15 03:29 | 41.84840 | 83.21133 | 33276 ft | 437 kts | 52° |
| 2026-04-15 03:30 | 41.88055 | 83.28059 | 33271 ft | 437 kts | 52° |
| 2026-04-15 03:30 | 41.91255 | 83.34970 | 33274 ft | 437 kts | 52° |
| 2026-04-15 03:31 | 41.94434 | 83.41853 | 33278 ft | 436 kts | 51° |
| 2026-04-15 03:31 | 41.97626 | 83.48781 | 33276 ft | 436 kts | 51° |
| 2026-04-15 03:32 | 42.00792 | 83.55667 | 33275 ft | 436 kts | 51° |
| 2026-04-15 03:32 | 42.03970 | 83.62593 | 33271 ft | 435 kts | 51° |
| 2026-04-15 03:33 | 42.07152 | 83.69547 | 33259 ft | 436 kts | 52° |
| 2026-04-15 03:33 | 42.10315 | 83.76472 | 33265 ft | 435 kts | 52° |
| 2026-04-15 03:34 | 42.13487 | 83.83436 | 33257 ft | 435 kts | 52° |
| 2026-04-15 03:34 | 42.16650 | 83.90398 | 33264 ft | 435 kts | 52° |
| 2026-04-15 03:35 | 42.19795 | 83.97332 | 33261 ft | 436 kts | 52° |
| 2026-04-15 03:35 | 42.23085 | 84.04127 | 33265 ft | 432 kts | 49° |
| 2026-04-15 03:36 | 42.26486 | 84.10809 | 33281 ft | 432 kts | 49° |
| 2026-04-15 03:36 | 42.29861 | 84.17452 | 33283 ft | 431 kts | 49° |
| 2026-04-15 03:37 | 42.33252 | 84.24142 | 33282 ft | 431 kts | 49° |
| 2026-04-15 03:37 | 42.36614 | 84.30797 | 33272 ft | 432 kts | 49° |
| 2026-04-15 03:38 | 42.39985 | 84.37485 | 33271 ft | 431 kts | 49° |
| 2026-04-15 03:38 | 42.43350 | 84.44179 | 33275 ft | 430 kts | 48° |
| 2026-04-15 03:39 | 42.46692 | 84.50841 | 33277 ft | 430 kts | 49° |
| 2026-04-15 03:39 | 42.50042 | 84.57531 | 33273 ft | 430 kts | 49° |
| 2026-04-15 03:40 | 42.53388 | 84.64229 | 33265 ft | 430 kts | 49° |
| 2026-04-15 03:40 | 42.56715 | 84.70908 | 33259 ft | 431 kts | 49° |
| 2026-04-15 03:41 | 42.60079 | 84.77670 | 33252 ft | 431 kts | 49° |
| 2026-04-15 03:41 | 42.63393 | 84.84352 | 33250 ft | 430 kts | 49° |
| 2026-04-15 03:42 | 42.66741 | 84.91114 | 33249 ft | 430 kts | 49° |
| 2026-04-15 03:42 | 42.70055 | 84.97826 | 33239 ft | 430 kts | 49° |
| 2026-04-15 03:43 | 42.73373 | 85.04556 | 33229 ft | 430 kts | 49° |
| 2026-04-15 03:43 | 42.76685 | 85.11293 | 33226 ft | 430 kts | 49° |
| 2026-04-15 03:44 | 42.80007 | 85.18066 | 33234 ft | 429 kts | 49° |
| 2026-04-15 03:44 | 42.83318 | 85.24828 | 33256 ft | 430 kts | 49° |
| 2026-04-15 03:45 | 42.86612 | 85.31576 | 33264 ft | 430 kts | 49° |
| 2026-04-15 03:45 | 42.89910 | 85.38346 | 33268 ft | 431 kts | 49° |
| 2026-04-15 03:46 | 42.93225 | 85.45163 | 33277 ft | 431 kts | 49° |
| 2026-04-15 03:46 | 42.96510 | 85.51939 | 33277 ft | 431 kts | 49° |
| 2026-04-15 03:47 | 42.99818 | 85.58778 | 33288 ft | 431 kts | 49° |
| 2026-04-15 03:47 | 43.03117 | 85.65608 | 33282 ft | 430 kts | 50° |
| 2026-04-15 03:48 | 43.06401 | 85.72427 | 33271 ft | 432 kts | 50° |
| 2026-04-15 03:48 | 43.09706 | 85.79307 | 33254 ft | 432 kts | 50° |
| 2026-04-15 03:49 | 43.12991 | 85.86157 | 33238 ft | 432 kts | 50° |
| 2026-04-15 03:49 | 43.16272 | 85.93022 | 33218 ft | 432 kts | 50° |
| 2026-04-15 03:50 | 43.19569 | 85.99905 | 33207 ft | 432 kts | 49° |
| 2026-04-15 03:50 | 43.22892 | 86.06776 | 33200 ft | 433 kts | 49° |
| 2026-04-15 03:51 | 43.26212 | 86.13654 | 33207 ft | 433 kts | 49° |
| 2026-04-15 03:51 | 43.29517 | 86.20525 | 33231 ft | 433 kts | 49° |
| 2026-04-15 03:52 | 43.32854 | 86.27383 | 33244 ft | 434 kts | 49° |
| 2026-04-15 03:52 | 43.36205 | 86.34261 | 33250 ft | 435 kts | 49° |
| 2026-04-15 03:53 | 43.39568 | 86.41196 | 33246 ft | 435 kts | 49° |
| 2026-04-15 03:53 | 43.42900 | 86.48069 | 33260 ft | 435 kts | 49° |
| 2026-04-15 03:54 | 43.46278 | 86.54993 | 33265 ft | 436 kts | 49° |
| 2026-04-15 03:55 | 43.51315 | 86.65359 | 33280 ft | 435 kts | 50° |
| 2026-04-15 03:55 | 43.54683 | 86.72315 | 33278 ft | 436 kts | 50° |
| 2026-04-15 03:56 | 43.58014 | 86.79319 | 33288 ft | 438 kts | 50° |
| 2026-04-15 03:56 | 43.61321 | 86.86311 | 33274 ft | 439 kts | 50° |
| 2026-04-15 03:57 | 43.64650 | 86.93366 | 33272 ft | 438 kts | 50° |
| 2026-04-15 03:57 | 43.67961 | 87.00394 | 33259 ft | 439 kts | 50° |
| 2026-04-15 03:58 | 43.71267 | 87.07428 | 33262 ft | 439 kts | 50° |
| 2026-04-15 03:58 | 43.74582 | 87.14500 | 33242 ft | 439 kts | 50° |
| 2026-04-15 03:59 | 43.77902 | 87.21605 | 33218 ft | 440 kts | 50° |
| 2026-04-15 03:59 | 43.81206 | 87.28697 | 33199 ft | 440 kts | 50° |
| 2026-04-15 04:00 | 43.84507 | 87.35801 | 33193 ft | 440 kts | 50° |
| 2026-04-15 04:00 | 43.87809 | 87.42926 | 33187 ft | 441 kts | 50° |
| 2026-04-15 04:01 | 43.91134 | 87.50047 | 33182 ft | 439 kts | 48° |
| 2026-04-15 04:01 | 43.94735 | 87.56810 | 33181 ft | 437 kts | 46° |
| 2026-04-15 04:02 | 43.98407 | 87.63497 | 33185 ft | 438 kts | 45° |
| 2026-04-15 04:02 | 44.02116 | 87.70277 | 33183 ft | 439 kts | 46° |
| 2026-04-15 04:03 | 44.05779 | 87.77002 | 33178 ft | 439 kts | 46° |
| 2026-04-15 04:03 | 44.09465 | 87.83784 | 33183 ft | 440 kts | 46° |
| 2026-04-15 04:04 | 44.12992 | 87.90760 | 33188 ft | 448 kts | 54° |
| 2026-04-15 04:04 | 44.15344 | 87.98901 | 33189 ft | 462 kts | 69° |
| 2026-04-15 04:05 | 44.16107 | 88.07925 | 33189 ft | 476 kts | 85° |
| 2026-04-15 04:05 | 44.15331 | 88.17104 | 33187 ft | 481 kts | 94° |
| 2026-04-15 04:06 | 44.14246 | 88.26272 | 33181 ft | 479 kts | 94° |
| 2026-04-15 04:06 | 44.13187 | 88.35403 | 33181 ft | 480 kts | 94° |
| 2026-04-15 04:07 | 44.12148 | 88.44510 | 33180 ft | 480 kts | 94° |
| 2026-04-15 04:07 | 44.11099 | 88.53706 | 33177 ft | 480 kts | 94° |
| 2026-04-15 04:08 | 44.10050 | 88.62846 | 33178 ft | 480 kts | 94° |
| 2026-04-15 04:08 | 44.08988 | 88.72003 | 33176 ft | 480 kts | 94° |
| 2026-04-15 04:09 | 44.07919 | 88.81168 | 33176 ft | 480 kts | 95° |
| 2026-04-15 04:09 | 44.06874 | 88.90303 | 33177 ft | 480 kts | 94° |
| 2026-04-15 04:10 | 44.05862 | 88.99489 | 33181 ft | 480 kts | 94° |
| 2026-04-15 04:10 | 44.04848 | 89.08619 | 33183 ft | 479 kts | 94° |
| 2026-04-15 04:11 | 44.03821 | 89.17763 | 33186 ft | 480 kts | 94° |
| 2026-04-15 04:11 | 44.02788 | 89.26878 | 33184 ft | 480 kts | 94° |
| 2026-04-15 04:12 | 44.01750 | 89.35970 | 33187 ft | 479 kts | 94° |
| 2026-04-15 04:12 | 44.00699 | 89.45127 | 33185 ft | 480 kts | 94° |
| 2026-04-15 04:13 | 43.99636 | 89.54254 | 33183 ft | 480 kts | 95° |
| 2026-04-15 04:13 | 43.98110 | 89.63243 | 33183 ft | 485 kts | 102° |
| 2026-04-15 04:14 | 43.95835 | 89.72075 | 33183 ft | 487 kts | 108° |
| 2026-04-15 04:14 | 43.93377 | 89.80827 | 33183 ft | 487 kts | 108° |
| 2026-04-15 04:15 | 43.90919 | 89.89586 | 33174 ft | 487 kts | 108° |
| 2026-04-15 04:15 | 43.88475 | 89.98292 | 33175 ft | 487 kts | 108° |
| 2026-04-15 04:16 | 43.86033 | 90.06979 | 33171 ft | 487 kts | 108° |
| 2026-04-15 04:16 | 43.83569 | 90.15715 | 33172 ft | 487 kts | 108° |
| 2026-04-15 04:17 | 43.81110 | 90.24403 | 33171 ft | 487 kts | 108° |
| 2026-04-15 04:17 | 43.78651 | 90.33067 | 33171 ft | 487 kts | 109° |
| 2026-04-15 04:18 | 43.76163 | 90.41802 | 33170 ft | 486 kts | 109° |
| 2026-04-15 04:18 | 43.73689 | 90.50449 | 33169 ft | 486 kts | 109° |
| 2026-04-15 04:19 | 43.71209 | 90.59096 | 33164 ft | 487 kts | 109° |
| 2026-04-15 04:19 | 43.68724 | 90.67748 | 33164 ft | 486 kts | 109° |
| 2026-04-15 04:20 | 43.66233 | 90.76444 | 33163 ft | 486 kts | 109° |
| 2026-04-15 04:20 | 43.63755 | 90.85081 | 33157 ft | 487 kts | 110° |
| 2026-04-15 04:21 | 43.61257 | 90.93748 | 33155 ft | 486 kts | 110° |
| 2026-04-15 04:21 | 43.58766 | 91.02363 | 33155 ft | 486 kts | 110° |
| 2026-04-15 04:22 | 43.56253 | 91.11025 | 33157 ft | 486 kts | 110° |
| 2026-04-15 04:22 | 43.53748 | 91.19635 | 33168 ft | 487 kts | 110° |
| 2026-04-15 04:23 | 43.51217 | 91.28301 | 33174 ft | 487 kts | 111° |
| 2026-04-15 04:23 | 43.48689 | 91.36927 | 33177 ft | 488 kts | 110° |
| 2026-04-15 04:24 | 43.46158 | 91.45536 | 33178 ft | 489 kts | 111° |
| 2026-04-15 04:24 | 43.43593 | 91.54240 | 33182 ft | 489 kts | 110° |
| 2026-04-15 04:25 | 43.41159 | 91.62894 | 33177 ft | 489 kts | 110° |
| 2026-04-15 04:25 | 43.38710 | 91.71667 | 33183 ft | 489 kts | 110° |
| 2026-04-15 04:26 | 43.36270 | 91.80338 | 33186 ft | 488 kts | 111° |
| 2026-04-15 04:26 | 43.33810 | 91.89040 | 33183 ft | 489 kts | 111° |
| 2026-04-15 04:27 | 43.31355 | 91.97684 | 33181 ft | 489 kts | 111° |
| 2026-04-15 04:27 | 43.28984 | 92.06378 | 33171 ft | 489 kts | 110° |
| 2026-04-15 04:28 | 43.26637 | 92.15161 | 33158 ft | 490 kts | 110° |
| 2026-04-15 04:28 | 43.24278 | 92.23902 | 33162 ft | 490 kts | 110° |
| 2026-04-15 04:29 | 43.21917 | 92.32612 | 33152 ft | 490 kts | 110° |
| 2026-04-15 04:29 | 43.19528 | 92.41383 | 33152 ft | 490 kts | 110° |
| 2026-04-15 04:30 | 43.17140 | 92.50119 | 33148 ft | 491 kts | 110° |
| 2026-04-15 04:30 | 43.14750 | 92.58823 | 33148 ft | 491 kts | 110° |
| 2026-04-15 04:31 | 43.12341 | 92.67546 | 33146 ft | 492 kts | 111° |
| 2026-04-15 04:31 | 43.09917 | 92.76286 | 33143 ft | 493 kts | 111° |
| 2026-04-15 04:32 | 43.07490 | 92.85014 | 33152 ft | 493 kts | 111° |
| 2026-04-15 04:32 | 43.05048 | 92.93771 | 33140 ft | 492 kts | 111° |
| 2026-04-15 04:33 | 43.02615 | 93.02465 | 33151 ft | 492 kts | 112° |
| 2026-04-15 04:33 | 43.00160 | 93.11198 | 33154 ft | 493 kts | 112° |
| 2026-04-15 04:34 | 42.97706 | 93.19905 | 33161 ft | 493 kts | 112° |
| 2026-04-15 04:34 | 42.95252 | 93.28584 | 33163 ft | 493 kts | 112° |
| 2026-04-15 04:35 | 42.92784 | 93.37286 | 33175 ft | 494 kts | 112° |
| 2026-04-15 04:35 | 42.90304 | 93.45999 | 33175 ft | 494 kts | 112° |
| 2026-04-15 04:36 | 42.87801 | 93.54742 | 33175 ft | 495 kts | 112° |
| 2026-04-15 04:36 | 42.84954 | 93.63228 | 33186 ft | 493 kts | 120° |
| 2026-04-15 04:37 | 42.81370 | 93.71139 | 33183 ft | 490 kts | 129° |
| 2026-04-15 04:37 | 42.77165 | 93.78320 | 33194 ft | 487 kts | 135° |
| 2026-04-15 04:38 | 42.72765 | 93.85269 | 33186 ft | 486 kts | 135° |
| 2026-04-15 04:38 | 42.68344 | 93.92255 | 33192 ft | 487 kts | 135° |
| 2026-04-15 04:39 | 42.63953 | 93.99210 | 33184 ft | 487 kts | 135° |
| 2026-04-15 04:39 | 42.59559 | 94.06159 | 33186 ft | 486 kts | 135° |
| 2026-04-15 04:40 | 42.55156 | 94.13109 | 33184 ft | 486 kts | 135° |
| 2026-04-15 04:40 | 42.50771 | 94.20017 | 33179 ft | 486 kts | 135° |
| 2026-04-15 04:41 | 42.46353 | 94.26957 | 33175 ft | 486 kts | 135° |
| 2026-04-15 04:41 | 42.41942 | 94.33867 | 33170 ft | 487 kts | 135° |
| 2026-04-15 04:42 | 42.37533 | 94.40765 | 33164 ft | 486 kts | 135° |
| 2026-04-15 04:42 | 42.33121 | 94.47646 | 33161 ft | 486 kts | 136° |
| 2026-04-15 04:43 | 42.28672 | 94.54572 | 33159 ft | 486 kts | 136° |
| 2026-04-15 04:43 | 42.24226 | 94.61475 | 33160 ft | 486 kts | 136° |
| 2026-04-15 04:44 | 42.19804 | 94.68325 | 33161 ft | 486 kts | 136° |
| 2026-04-15 04:44 | 42.15367 | 94.75184 | 33165 ft | 485 kts | 136° |
| 2026-04-15 04:45 | 42.10932 | 94.82024 | 33164 ft | 485 kts | 136° |
| 2026-04-15 04:45 | 42.06493 | 94.88854 | 33165 ft | 485 kts | 137° |
| 2026-04-15 04:46 | 42.02050 | 94.95678 | 33163 ft | 484 kts | 136° |
| 2026-04-15 04:46 | 41.95393 | 95.05870 | 33171 ft | 484 kts | 137° |
| 2026-04-15 04:47 | 41.91047 | 95.12787 | 33163 ft | 489 kts | 130° |
| 2026-04-15 04:47 | 41.87831 | 95.20873 | 33169 ft | 498 kts | 113° |
| 2026-04-15 04:48 | 41.86286 | 95.29972 | 33175 ft | 503 kts | 96° |
| 2026-04-15 04:48 | 41.86257 | 95.39444 | 33177 ft | 504 kts | 89° |
| 2026-04-15 04:49 | 41.86463 | 95.48813 | 33174 ft | 504 kts | 89° |
| 2026-04-15 04:49 | 41.86606 | 95.58213 | 33169 ft | 504 kts | 89° |
| 2026-04-15 04:50 | 41.86708 | 95.67574 | 33168 ft | 504 kts | 90° |
| 2026-04-15 04:50 | 41.86795 | 95.76987 | 33167 ft | 504 kts | 90° |
| 2026-04-15 04:51 | 41.86875 | 95.86395 | 33172 ft | 504 kts | 90° |
| 2026-04-15 04:51 | 41.86946 | 95.95727 | 33173 ft | 504 kts | 90° |
| 2026-04-15 04:52 | 41.87012 | 96.05126 | 33168 ft | 504 kts | 90° |
| 2026-04-15 04:52 | 41.87067 | 96.14545 | 33168 ft | 504 kts | 90° |
| 2026-04-15 04:53 | 41.87116 | 96.23893 | 33158 ft | 504 kts | 90° |
| 2026-04-15 04:53 | 41.87248 | 96.33305 | 33152 ft | 505 kts | 89° |
| 2026-04-15 04:54 | 41.87415 | 96.42694 | 33141 ft | 505 kts | 89° |
| 2026-04-15 04:54 | 41.87571 | 96.52103 | 33147 ft | 505 kts | 89° |
| 2026-04-15 04:55 | 41.87712 | 96.61480 | 33148 ft | 505 kts | 89° |
| 2026-04-15 04:55 | 41.87844 | 96.70906 | 33146 ft | 505 kts | 90° |
| 2026-04-15 04:56 | 41.87968 | 96.80312 | 33148 ft | 504 kts | 90° |
| 2026-04-15 04:56 | 41.88084 | 96.89742 | 33149 ft | 504 kts | 90° |
| 2026-04-15 04:57 | 41.88192 | 96.99130 | 33150 ft | 504 kts | 90° |
| 2026-04-15 04:57 | 41.88292 | 97.08524 | 33149 ft | 504 kts | 90° |
| 2026-04-15 04:58 | 41.88385 | 97.17850 | 33148 ft | 504 kts | 90° |
| 2026-04-15 04:58 | 41.88470 | 97.27263 | 33144 ft | 504 kts | 90° |
| 2026-04-15 04:59 | 41.88547 | 97.36654 | 33149 ft | 505 kts | 90° |
| 2026-04-15 04:59 | 41.88616 | 97.46021 | 33141 ft | 505 kts | 90° |
| 2026-04-15 05:00 | 41.88681 | 97.55448 | 33143 ft | 504 kts | 90° |
| 2026-04-15 05:00 | 41.88735 | 97.64829 | 33138 ft | 505 kts | 90° |
| 2026-04-15 05:01 | 41.88783 | 97.74261 | 33141 ft | 505 kts | 90° |
| 2026-04-15 05:01 | 41.88821 | 97.83664 | 33136 ft | 504 kts | 90° |
| 2026-04-15 05:02 | 41.88853 | 97.93092 | 33139 ft | 503 kts | 90° |
| 2026-04-15 05:02 | 41.88875 | 98.02454 | 33133 ft | 504 kts | 90° |
| 2026-04-15 05:03 | 41.88892 | 98.11822 | 33125 ft | 504 kts | 90° |
| 2026-04-15 05:03 | 41.88902 | 98.21173 | 33130 ft | 503 kts | 90° |
| 2026-04-15 05:04 | 41.88904 | 98.30550 | 33130 ft | 502 kts | 90° |
| 2026-04-15 05:04 | 41.88897 | 98.39925 | 33125 ft | 503 kts | 90° |
| 2026-04-15 05:05 | 41.88884 | 98.49249 | 33119 ft | 503 kts | 90° |
| 2026-04-15 05:05 | 41.88863 | 98.58622 | 33121 ft | 503 kts | 90° |
| 2026-04-15 05:06 | 41.88835 | 98.67994 | 33119 ft | 503 kts | 91° |
| 2026-04-15 05:06 | 41.88798 | 98.77377 | 33116 ft | 502 kts | 91° |
| 2026-04-15 05:07 | 41.88753 | 98.86768 | 33114 ft | 503 kts | 91° |
| 2026-04-15 05:07 | 41.88701 | 98.96124 | 33116 ft | 503 kts | 91° |
| 2026-04-15 05:08 | 41.88642 | 99.05476 | 33108 ft | 502 kts | 91° |
| 2026-04-15 05:08 | 41.88574 | 99.14812 | 33103 ft | 502 kts | 91° |
| 2026-04-15 05:09 | 41.88501 | 99.24162 | 33108 ft | 501 kts | 91° |
| 2026-04-15 05:09 | 41.88416 | 99.33520 | 33107 ft | 501 kts | 91° |
| 2026-04-15 05:10 | 41.88327 | 99.42805 | 33107 ft | 501 kts | 91° |
| 2026-04-15 05:10 | 41.88230 | 99.52129 | 33105 ft | 500 kts | 91° |
| 2026-04-15 05:11 | 41.88124 | 99.61466 | 33099 ft | 501 kts | 91° |
| 2026-04-15 05:11 | 41.88012 | 99.70763 | 33095 ft | 501 kts | 92° |
| 2026-04-15 05:12 | 41.87889 | 99.80118 | 33091 ft | 501 kts | 92° |
| 2026-04-15 05:12 | 41.87762 | 99.89397 | 33089 ft | 501 kts | 92° |
| 2026-04-15 05:13 | 41.87627 | 99.98698 | 33081 ft | 501 kts | 92° |
| 2026-04-15 05:13 | 41.87484 | 100.08023 | 33082 ft | 501 kts | 92° |
| 2026-04-15 05:14 | 41.87336 | 100.17340 | 33079 ft | 500 kts | 92° |
| 2026-04-15 05:14 | 41.87178 | 100.26663 | 33078 ft | 500 kts | 93° |
| 2026-04-15 05:15 | 41.87012 | 100.35975 | 33068 ft | 499 kts | 93° |
| 2026-04-15 05:15 | 41.86841 | 100.45254 | 33071 ft | 499 kts | 93° |
| 2026-04-15 05:16 | 41.86662 | 100.54526 | 33063 ft | 499 kts | 93° |
| 2026-04-15 05:16 | 41.86477 | 100.63763 | 33071 ft | 498 kts | 93° |
| 2026-04-15 05:17 | 41.86281 | 100.73060 | 33062 ft | 498 kts | 94° |
| 2026-04-15 05:17 | 41.86079 | 100.82363 | 33064 ft | 497 kts | 94° |
| 2026-04-15 05:18 | 41.85869 | 100.91659 | 33064 ft | 498 kts | 94° |
| 2026-04-15 05:18 | 41.85655 | 101.00861 | 33066 ft | 498 kts | 94° |
| 2026-04-15 05:19 | 41.85431 | 101.10151 | 33067 ft | 497 kts | 94° |
| 2026-04-15 05:19 | 41.84842 | 101.19303 | 33056 ft | 494 kts | 102° |
| 2026-04-15 05:20 | 41.83421 | 101.28268 | 33061 ft | 490 kts | 110° |
| 2026-04-15 05:20 | 41.81252 | 101.36864 | 33053 ft | 487 kts | 115° |
| 2026-04-15 05:21 | 41.78903 | 101.45307 | 33060 ft | 487 kts | 115° |
| 2026-04-15 05:21 | 41.76527 | 101.53870 | 33050 ft | 488 kts | 115° |
| 2026-04-15 05:22 | 41.74189 | 101.62339 | 33050 ft | 487 kts | 115° |
| 2026-04-15 05:22 | 41.71836 | 101.70833 | 33050 ft | 486 kts | 115° |
| 2026-04-15 05:23 | 41.69484 | 101.79301 | 33049 ft | 487 kts | 115° |
| 2026-04-15 05:23 | 41.67126 | 101.87764 | 33051 ft | 487 kts | 115° |
| 2026-04-15 05:24 | 41.64767 | 101.96201 | 33053 ft | 487 kts | 115° |
| 2026-04-15 05:24 | 41.62394 | 102.04656 | 33038 ft | 487 kts | 115° |
| 2026-04-15 05:25 | 41.60011 | 102.13132 | 33041 ft | 487 kts | 116° |
| 2026-04-15 05:25 | 41.57636 | 102.21539 | 33031 ft | 487 kts | 116° |
| 2026-04-15 05:26 | 41.55252 | 102.29954 | 33036 ft | 487 kts | 116° |
| 2026-04-15 05:26 | 41.52845 | 102.38429 | 33039 ft | 487 kts | 116° |
| 2026-04-15 05:27 | 41.50455 | 102.46812 | 33056 ft | 487 kts | 116° |
| 2026-04-15 05:27 | 41.48046 | 102.55230 | 33038 ft | 487 kts | 116° |
| 2026-04-15 05:28 | 41.45620 | 102.63680 | 33037 ft | 488 kts | 116° |
| 2026-04-15 05:28 | 41.43196 | 102.72108 | 33034 ft | 486 kts | 117° |
| 2026-04-15 05:29 | 41.40786 | 102.80498 | 33047 ft | 487 kts | 117° |
| 2026-04-15 05:29 | 41.38379 | 102.88872 | 33043 ft | 487 kts | 117° |
| 2026-04-15 05:30 | 41.35936 | 102.97317 | 33050 ft | 488 kts | 117° |
| 2026-04-15 05:30 | 41.33568 | 103.05733 | 33034 ft | 488 kts | 116° |
| 2026-04-15 05:31 | 41.31229 | 103.14241 | 33037 ft | 489 kts | 116° |
| 2026-04-15 05:31 | 41.28902 | 103.22658 | 33055 ft | 489 kts | 116° |
| 2026-04-15 05:32 | 41.26545 | 103.31141 | 33033 ft | 489 kts | 116° |
| 2026-04-15 05:32 | 41.24177 | 103.39616 | 33043 ft | 490 kts | 116° |
| 2026-04-15 05:33 | 41.21808 | 103.48069 | 33036 ft | 490 kts | 116° |
| 2026-04-15 05:33 | 41.19433 | 103.56527 | 33027 ft | 489 kts | 116° |
| 2026-04-15 05:34 | 41.17036 | 103.65023 | 33040 ft | 490 kts | 117° |
| 2026-04-15 05:34 | 41.14634 | 103.73513 | 33037 ft | 490 kts | 117° |
| 2026-04-15 05:35 | 41.12231 | 103.81973 | 33034 ft | 490 kts | 117° |
| 2026-04-15 05:35 | 41.09839 | 103.90382 | 33052 ft | 489 kts | 117° |
| 2026-04-15 05:36 | 41.07431 | 103.98801 | 33052 ft | 490 kts | 117° |
| 2026-04-15 05:36 | 41.05024 | 104.07198 | 33039 ft | 489 kts | 117° |
| 2026-04-15 05:37 | 41.02615 | 104.15572 | 33048 ft | 489 kts | 117° |
| 2026-04-15 05:37 | 41.00186 | 104.24001 | 33047 ft | 488 kts | 117° |
| 2026-04-15 05:38 | 40.97826 | 104.32332 | 33045 ft | 489 kts | 114° |
| 2026-04-15 05:38 | 40.95734 | 104.40906 | 33043 ft | 491 kts | 113° |
| 2026-04-15 05:39 | 40.93670 | 104.49501 | 33052 ft | 492 kts | 112° |
| 2026-04-15 05:39 | 40.91597 | 104.58101 | 33044 ft | 491 kts | 112° |
| 2026-04-15 05:40 | 40.89525 | 104.66645 | 33049 ft | 490 kts | 113° |
| 2026-04-15 05:40 | 40.87434 | 104.75209 | 33038 ft | 490 kts | 113° |
| 2026-04-15 05:41 | 40.85343 | 104.83756 | 33040 ft | 490 kts | 114° |
| 2026-04-15 05:41 | 40.83246 | 104.92284 | 33044 ft | 490 kts | 113° |
| 2026-04-15 05:42 | 40.81139 | 105.00824 | 33042 ft | 490 kts | 113° |
| 2026-04-15 05:42 | 40.79028 | 105.09355 | 33035 ft | 490 kts | 113° |
| 2026-04-15 05:43 | 40.76908 | 105.17885 | 33040 ft | 493 kts | 113° |
| 2026-04-15 05:43 | 40.74773 | 105.26458 | 33025 ft | 492 kts | 113° |
| 2026-04-15 05:44 | 40.72636 | 105.34998 | 33024 ft | 492 kts | 113° |
| 2026-04-15 05:44 | 40.70500 | 105.43504 | 33025 ft | 492 kts | 113° |
| 2026-04-15 05:45 | 40.68344 | 105.52068 | 33030 ft | 492 kts | 113° |
| 2026-04-15 05:45 | 40.66190 | 105.60596 | 33039 ft | 493 kts | 114° |
| 2026-04-15 05:46 | 40.64025 | 105.69126 | 33028 ft | 492 kts | 114° |
| 2026-04-15 05:46 | 40.61848 | 105.77666 | 33038 ft | 494 kts | 114° |
| 2026-04-15 05:47 | 40.59670 | 105.86194 | 33039 ft | 493 kts | 114° |
| 2026-04-15 05:47 | 40.57482 | 105.94730 | 33036 ft | 493 kts | 114° |
| 2026-04-15 05:48 | 40.55282 | 106.03267 | 33030 ft | 493 kts | 114° |
| 2026-04-15 05:48 | 40.53077 | 106.11803 | 33026 ft | 493 kts | 114° |
| 2026-04-15 05:49 | 40.50873 | 106.20316 | 33018 ft | 492 kts | 114° |
| 2026-04-15 05:49 | 40.48670 | 106.28789 | 33014 ft | 492 kts | 114° |
| 2026-04-15 05:50 | 40.46444 | 106.37307 | 33005 ft | 493 kts | 114° |
| 2026-04-15 05:51 | 40.43113 | 106.50030 | 32998 ft | 492 kts | 114° |
| 2026-04-15 05:51 | 40.40882 | 106.58504 | 32996 ft | 493 kts | 114° |
| 2026-04-15 05:52 | 40.38652 | 106.66943 | 32993 ft | 492 kts | 115° |
| 2026-04-15 05:52 | 40.36418 | 106.75386 | 32996 ft | 492 kts | 115° |
| 2026-04-15 05:53 | 40.34170 | 106.83839 | 32998 ft | 490 kts | 114° |
| 2026-04-15 05:53 | 40.32420 | 106.92528 | 33000 ft | 497 kts | 104° |
| 2026-04-15 05:54 | 40.31848 | 107.01574 | 32996 ft | 502 kts | 92° |
| 2026-04-15 05:54 | 40.32507 | 107.10699 | 32995 ft | 506 kts | 83° |
| 2026-04-15 05:55 | 40.33682 | 107.19736 | 33000 ft | 507 kts | 82° |
| 2026-04-15 05:55 | 40.34851 | 107.28852 | 33007 ft | 508 kts | 83° |
| 2026-04-15 05:56 | 40.35978 | 107.37902 | 33001 ft | 507 kts | 82° |
| 2026-04-15 05:56 | 40.37093 | 107.47031 | 32999 ft | 508 kts | 82° |
| 2026-04-15 05:57 | 40.38202 | 107.56175 | 32991 ft | 509 kts | 82° |
| 2026-04-15 05:57 | 40.39305 | 107.65348 | 32984 ft | 509 kts | 83° |
| 2026-04-15 05:58 | 40.40394 | 107.74483 | 32990 ft | 510 kts | 83° |
| 2026-04-15 05:58 | 40.41479 | 107.83641 | 32989 ft | 511 kts | 83° |
| 2026-04-15 05:59 | 40.42568 | 107.92862 | 32990 ft | 511 kts | 83° |
| 2026-04-15 05:59 | 40.43639 | 108.02074 | 32995 ft | 512 kts | 83° |
| 2026-04-15 06:00 | 40.44701 | 108.11235 | 33002 ft | 513 kts | 83° |
| 2026-04-15 06:00 | 40.45765 | 108.20499 | 33007 ft | 513 kts | 83° |
| 2026-04-15 06:01 | 40.46817 | 108.29767 | 32999 ft | 514 kts | 82° |
| 2026-04-15 06:01 | 40.47861 | 108.38976 | 33000 ft | 514 kts | 82° |
| 2026-04-15 06:02 | 40.48906 | 108.48257 | 32996 ft | 513 kts | 82° |
| 2026-04-15 06:02 | 40.49937 | 108.57499 | 32994 ft | 515 kts | 82° |
| 2026-04-15 06:03 | 40.50964 | 108.66788 | 32987 ft | 514 kts | 82° |
| 2026-04-15 06:03 | 40.51987 | 108.76099 | 32987 ft | 514 kts | 82° |
| 2026-04-15 06:04 | 40.52999 | 108.85377 | 32986 ft | 516 kts | 82° |
| 2026-04-15 06:04 | 40.54004 | 108.94670 | 32987 ft | 516 kts | 83° |
| 2026-04-15 06:05 | 40.55001 | 109.03984 | 32987 ft | 516 kts | 82° |
| 2026-04-15 06:05 | 40.55995 | 109.13291 | 32992 ft | 517 kts | 82° |
| 2026-04-15 06:06 | 40.56982 | 109.22642 | 32999 ft | 516 kts | 82° |
| 2026-04-15 06:06 | 40.57955 | 109.31962 | 33008 ft | 517 kts | 82° |
| 2026-04-15 06:07 | 40.58917 | 109.41238 | 33017 ft | 517 kts | 82° |
| 2026-04-15 06:07 | 40.59889 | 109.50631 | 33026 ft | 517 kts | 82° |
| 2026-04-15 06:08 | 40.60842 | 109.59972 | 33025 ft | 517 kts | 82° |
| 2026-04-15 06:08 | 40.61800 | 109.69373 | 33025 ft | 517 kts | 83° |
| 2026-04-15 06:09 | 40.62734 | 109.78699 | 33028 ft | 517 kts | 83° |
| 2026-04-15 06:09 | 40.63668 | 109.88074 | 33018 ft | 519 kts | 83° |
| 2026-04-15 06:10 | 40.64513 | 109.97469 | 33027 ft | 517 kts | 86° |
| 2026-04-15 06:10 | 40.64694 | 110.06937 | 33025 ft | 516 kts | 92° |
| 2026-04-15 06:11 | 40.64612 | 110.16331 | 33015 ft | 517 kts | 92° |
| 2026-04-15 06:11 | 40.64537 | 110.25782 | 33029 ft | 517 kts | 91° |
| 2026-04-15 06:12 | 40.64479 | 110.35214 | 33023 ft | 517 kts | 92° |
| 2026-04-15 06:12 | 40.64409 | 110.44669 | 33030 ft | 517 kts | 92° |
| 2026-04-15 06:13 | 40.64333 | 110.54102 | 33023 ft | 517 kts | 92° |
| 2026-04-15 06:13 | 40.64247 | 110.63531 | 33032 ft | 519 kts | 92° |
| 2026-04-15 06:14 | 40.64159 | 110.73002 | 33036 ft | 515 kts | 93° |
| 2026-04-15 06:14 | 40.64059 | 110.82367 | 33038 ft | 516 kts | 93° |
| 2026-04-15 06:15 | 40.63955 | 110.91796 | 33037 ft | 516 kts | 93° |
| 2026-04-15 06:15 | 40.63843 | 111.01201 | 33040 ft | 517 kts | 93° |
| 2026-04-15 06:16 | 40.63718 | 111.10680 | 33035 ft | 517 kts | 93° |
| 2026-04-15 06:16 | 40.63591 | 111.20078 | 33041 ft | 516 kts | 92° |
| 2026-04-15 06:17 | 40.63453 | 111.29519 | 33030 ft | 516 kts | 92° |
| 2026-04-15 06:17 | 40.63313 | 111.38944 | 33051 ft | 517 kts | 92° |
| 2026-04-15 06:18 | 40.63159 | 111.48369 | 33042 ft | 516 kts | 92° |
| 2026-04-15 06:18 | 40.63002 | 111.57810 | 33042 ft | 516 kts | 92° |
| 2026-04-15 06:19 | 40.62831 | 111.67217 | 33049 ft | 516 kts | 92° |
| 2026-04-15 06:19 | 40.62662 | 111.76670 | 33045 ft | 515 kts | 93° |
| 2026-04-15 06:20 | 40.62482 | 111.86061 | 33051 ft | 516 kts | 92° |
| 2026-04-15 06:20 | 40.62307 | 111.95481 | 33063 ft | 515 kts | 92° |
| 2026-04-15 06:21 | 40.62101 | 112.04928 | 33060 ft | 515 kts | 92° |
| 2026-04-15 06:21 | 40.61886 | 112.14310 | 33079 ft | 516 kts | 92° |
| 2026-04-15 06:22 | 40.61671 | 112.23698 | 33084 ft | 517 kts | 91° |
| 2026-04-15 06:22 | 40.61455 | 112.33127 | 33077 ft | 517 kts | 92° |
| 2026-04-15 06:23 | 40.61221 | 112.42567 | 33101 ft | 518 kts | 92° |
| 2026-04-15 06:23 | 40.60908 | 112.52049 | 33094 ft | 518 kts | 94° |
| 2026-04-15 06:24 | 40.60375 | 112.61468 | 33059 ft | 519 kts | 95° |
| 2026-04-15 06:24 | 40.59818 | 112.70950 | 33084 ft | 520 kts | 95° |
| 2026-04-15 06:25 | 40.58410 | 112.80259 | 33048 ft | 517 kts | 115° |
| 2026-04-15 06:25 | 40.56791 | 112.84450 | 33077 ft | 511 kts | 128° |
| 2026-04-15 06:25 | 40.54739 | 112.88231 | 33088 ft | 509 kts | 132° |
| 2026-04-15 06:26 | 40.50444 | 112.95571 | 33058 ft | 509 kts | 133° |
| 2026-04-15 06:26 | 40.46146 | 113.02954 | 33054 ft | 509 kts | 132° |
| 2026-04-15 06:27 | 40.41905 | 113.10336 | 33072 ft | 508 kts | 132° |
| 2026-04-15 06:27 | 40.37656 | 113.17753 | 33046 ft | 509 kts | 132° |
| 2026-04-15 06:28 | 40.33420 | 113.25142 | 33060 ft | 510 kts | 132° |
| 2026-04-15 06:28 | 40.29157 | 113.32567 | 33066 ft | 510 kts | 132° |
| 2026-04-15 06:29 | 40.24882 | 113.39986 | 33072 ft | 511 kts | 132° |
| 2026-04-15 06:29 | 40.20609 | 113.47385 | 33095 ft | 513 kts | 132° |
| 2026-04-15 06:30 | 40.16318 | 113.54801 | 33088 ft | 513 kts | 132° |
| 2026-04-15 06:30 | 40.12012 | 113.62226 | 33082 ft | 514 kts | 132° |
| 2026-04-15 06:31 | 40.07715 | 113.69621 | 33065 ft | 512 kts | 133° |
| 2026-04-15 06:31 | 40.03395 | 113.77032 | 33039 ft | 513 kts | 133° |
| 2026-04-15 06:32 | 39.99062 | 113.84447 | 33056 ft | 514 kts | 133° |
| 2026-04-15 06:32 | 39.94739 | 113.91827 | 33059 ft | 514 kts | 133° |
| 2026-04-15 06:33 | 39.90414 | 113.99196 | 33065 ft | 513 kts | 133° |
| 2026-04-15 06:33 | 39.86064 | 114.06594 | 33071 ft | 513 kts | 133° |
| 2026-04-15 06:34 | 39.81725 | 114.13948 | 33081 ft | 513 kts | 133° |
| 2026-04-15 06:34 | 39.77408 | 114.21250 | 33074 ft | 514 kts | 133° |
| 2026-04-15 06:35 | 39.73046 | 114.28616 | 33062 ft | 512 kts | 133° |
| 2026-04-15 06:35 | 39.68724 | 114.35893 | 33066 ft | 513 kts | 133° |
| 2026-04-15 06:36 | 39.64370 | 114.43204 | 33076 ft | 513 kts | 133° |
| 2026-04-15 06:36 | 39.59988 | 114.50549 | 33088 ft | 513 kts | 133° |
| 2026-04-15 06:37 | 39.55635 | 114.57834 | 33094 ft | 512 kts | 133° |
| 2026-04-15 06:37 | 39.51267 | 114.65115 | 33100 ft | 515 kts | 133° |
| 2026-04-15 06:38 | 39.46887 | 114.72411 | 33096 ft | 513 kts | 133° |
| 2026-04-15 06:38 | 39.42510 | 114.79681 | 33091 ft | 513 kts | 133° |
| 2026-04-15 06:39 | 39.38106 | 114.86974 | 33089 ft | 513 kts | 133° |
| 2026-04-15 06:39 | 39.33733 | 114.94205 | 33074 ft | 513 kts | 133° |
| 2026-04-15 06:40 | 39.29350 | 115.01435 | 33073 ft | 513 kts | 133° |
| 2026-04-15 06:40 | 39.24966 | 115.08649 | 33062 ft | 513 kts | 133° |
| 2026-04-15 06:41 | 39.20580 | 115.15855 | 33048 ft | 512 kts | 133° |
| 2026-04-15 06:41 | 39.16175 | 115.23066 | 33036 ft | 512 kts | 133° |
| 2026-04-15 06:42 | 39.11799 | 115.30216 | 33024 ft | 512 kts | 133° |
| 2026-04-15 06:42 | 39.07381 | 115.37421 | 33019 ft | 512 kts | 133° |
| 2026-04-15 06:43 | 39.02995 | 115.44563 | 33024 ft | 512 kts | 133° |
| 2026-04-15 06:43 | 38.98592 | 115.51714 | 33018 ft | 512 kts | 133° |
| 2026-04-15 06:44 | 38.94175 | 115.58868 | 33001 ft | 512 kts | 133° |
| 2026-04-15 06:44 | 38.89743 | 115.66034 | 33008 ft | 511 kts | 134° |
| 2026-04-15 06:45 | 38.85318 | 115.73173 | 33013 ft | 511 kts | 134° |
| 2026-04-15 06:45 | 38.80886 | 115.80300 | 32996 ft | 511 kts | 133° |
| 2026-04-15 06:46 | 38.76463 | 115.87404 | 32998 ft | 511 kts | 134° |
| 2026-04-15 06:46 | 38.72047 | 115.94477 | 32994 ft | 511 kts | 133° |
| 2026-04-15 06:47 | 38.67599 | 116.01588 | 32994 ft | 512 kts | 133° |
| 2026-04-15 06:47 | 38.63160 | 116.08671 | 32995 ft | 511 kts | 133° |
| 2026-04-15 06:48 | 38.58714 | 116.15748 | 33003 ft | 512 kts | 133° |
| 2026-04-15 06:48 | 38.54281 | 116.22792 | 33002 ft | 512 kts | 133° |
| 2026-04-15 06:49 | 38.49818 | 116.29866 | 33008 ft | 512 kts | 134° |
| 2026-04-15 06:49 | 38.45362 | 116.36913 | 33008 ft | 511 kts | 134° |
| 2026-04-15 06:50 | 38.38683 | 116.47447 | 33004 ft | 512 kts | 133° |
| 2026-04-15 06:50 | 38.34175 | 116.54442 | 33009 ft | 509 kts | 137° |
| 2026-04-15 06:51 | 38.28951 | 116.60370 | 33012 ft | 497 kts | 151° |
| 2026-04-15 06:51 | 38.22986 | 116.64586 | 33004 ft | 482 kts | 165° |
| 2026-04-15 06:52 | 38.16732 | 116.67179 | 33011 ft | 473 kts | 173° |
| 2026-04-15 06:52 | 38.10390 | 116.69462 | 33003 ft | 474 kts | 173° |
| 2026-04-15 06:53 | 38.04064 | 116.71850 | 33003 ft | 474 kts | 172° |
| 2026-04-15 06:53 | 37.97744 | 116.74262 | 32996 ft | 474 kts | 172° |
| 2026-04-15 06:54 | 37.91459 | 116.76656 | 33006 ft | 473 kts | 172° |
| 2026-04-15 06:54 | 37.85176 | 116.79043 | 32996 ft | 472 kts | 172° |
| 2026-04-15 06:55 | 37.78829 | 116.81445 | 33000 ft | 473 kts | 172° |
| 2026-04-15 06:55 | 37.72528 | 116.83827 | 32995 ft | 474 kts | 172° |
| 2026-04-15 06:56 | 37.66341 | 116.86165 | 33009 ft | 473 kts | 172° |
| 2026-04-15 06:56 | 37.60060 | 116.88533 | 33003 ft | 471 kts | 172° |
| 2026-04-15 06:57 | 37.53769 | 116.90900 | 33007 ft | 471 kts | 172° |
| 2026-04-15 06:57 | 37.47469 | 116.93264 | 33006 ft | 474 kts | 172° |
| 2026-04-15 06:58 | 37.41195 | 116.95619 | 32996 ft | 472 kts | 173° |
| 2026-04-15 06:58 | 37.34861 | 116.97990 | 33017 ft | 473 kts | 172° |
| 2026-04-15 06:59 | 37.28567 | 117.00442 | 33006 ft | 476 kts | 169° |
| 2026-04-15 06:59 | 37.22375 | 117.03335 | 33002 ft | 477 kts | 168° |
| 2026-04-15 07:00 | 37.16130 | 117.06266 | 33010 ft | 478 kts | 169° |
| 2026-04-15 07:00 | 37.09907 | 117.09173 | 33006 ft | 478 kts | 169° |
| 2026-04-15 07:01 | 37.03702 | 117.12068 | 33001 ft | 477 kts | 169° |
| 2026-04-15 07:01 | 36.97484 | 117.14962 | 33007 ft | 478 kts | 168° |
| 2026-04-15 07:02 | 36.91261 | 117.17830 | 33008 ft | 477 kts | 170° |
| 2026-04-15 07:02 | 36.84889 | 117.20058 | 33012 ft | 468 kts | 178° |
| 2026-04-15 07:03 | 36.78549 | 117.21267 | 33008 ft | 455 kts | 185° |
| 2026-04-15 07:03 | 36.72307 | 117.21531 | 33010 ft | 445 kts | 191° |
| 2026-04-15 07:04 | 36.66056 | 117.21469 | 33024 ft | 448 kts | 191° |
| 2026-04-15 07:04 | 36.59844 | 117.21418 | 33039 ft | 446 kts | 190° |
| 2026-04-15 07:05 | 36.53632 | 117.21380 | 33040 ft | 445 kts | 190° |
| 2026-04-15 07:05 | 36.47404 | 117.21426 | 33054 ft | 448 kts | 188° |
| 2026-04-15 07:06 | 36.41096 | 117.22194 | 33051 ft | 456 kts | 181° |
| 2026-04-15 07:06 | 36.34797 | 117.23875 | 33047 ft | 466 kts | 174° |
| 2026-04-15 07:07 | 36.28553 | 117.26190 | 33041 ft | 467 kts | 173° |
| 2026-04-15 07:07 | 36.22371 | 117.28502 | 33032 ft | 466 kts | 173° |
| 2026-04-15 07:08 | 36.16150 | 117.30814 | 33028 ft | 465 kts | 173° |
| 2026-04-15 07:08 | 36.09918 | 117.33122 | 33030 ft | 463 kts | 173° |
| 2026-04-15 07:09 | 36.03769 | 117.35395 | 33031 ft | 463 kts | 173° |
| 2026-04-15 07:09 | 35.97597 | 117.37677 | 33038 ft | 464 kts | 173° |
| 2026-04-15 07:10 | 35.91410 | 117.39992 | 33040 ft | 463 kts | 173° |
| 2026-04-15 07:10 | 35.85216 | 117.42313 | 33047 ft | 462 kts | 173° |
| 2026-04-15 07:11 | 35.79053 | 117.44614 | 33051 ft | 463 kts | 172° |
| 2026-04-15 07:11 | 35.72909 | 117.46905 | 33050 ft | 463 kts | 173° |
| 2026-04-15 07:12 | 35.66714 | 117.49210 | 33051 ft | 464 kts | 172° |
| 2026-04-15 07:12 | 35.60557 | 117.51500 | 33054 ft | 463 kts | 172° |
| 2026-04-15 07:13 | 35.54374 | 117.53793 | 33053 ft | 464 kts | 172° |
| 2026-04-15 07:13 | 35.48166 | 117.56094 | 33054 ft | 464 kts | 172° |
| 2026-04-15 07:14 | 35.42025 | 117.58367 | 33055 ft | 464 kts | 172° |
| 2026-04-15 07:14 | 35.35842 | 117.60650 | 33056 ft | 463 kts | 172° |
| 2026-04-15 07:15 | 35.29645 | 117.62936 | 33056 ft | 463 kts | 172° |
| 2026-04-15 07:15 | 35.23470 | 117.65208 | 33056 ft | 464 kts | 172° |
| 2026-04-15 07:16 | 35.17272 | 117.67489 | 33056 ft | 463 kts | 172° |
| 2026-04-15 07:16 | 35.11068 | 117.69767 | 33056 ft | 464 kts | 172° |
| 2026-04-15 07:17 | 35.04894 | 117.72028 | 33055 ft | 463 kts | 172° |
| 2026-04-15 07:17 | 34.98704 | 117.74294 | 33049 ft | 465 kts | 172° |
| 2026-04-15 07:18 | 34.92538 | 117.76553 | 33040 ft | 464 kts | 172° |
| 2026-04-15 07:18 | 34.86347 | 117.78816 | 33039 ft | 464 kts | 172° |
| 2026-04-15 07:19 | 34.80152 | 117.81081 | 33036 ft | 463 kts | 172° |
| 2026-04-15 07:19 | 34.73987 | 117.83299 | 33036 ft | 462 kts | 172° |
| 2026-04-15 07:20 | 34.67814 | 117.85517 | 33037 ft | 461 kts | 172° |
| 2026-04-15 07:20 | 34.61687 | 117.87717 | 33038 ft | 459 kts | 172° |
| 2026-04-15 07:21 | 34.55533 | 117.89927 | 33042 ft | 460 kts | 172° |
| 2026-04-15 07:21 | 34.49397 | 117.92125 | 33042 ft | 458 kts | 172° |
| 2026-04-15 07:22 | 34.43291 | 117.94308 | 33038 ft | 459 kts | 172° |
| 2026-04-15 07:22 | 34.37180 | 117.96491 | 33041 ft | 459 kts | 172° |
| 2026-04-15 07:23 | 34.31128 | 117.99079 | 33042 ft | 464 kts | 166° |
| 2026-04-15 07:23 | 34.25270 | 118.02530 | 33050 ft | 471 kts | 159° |
| 2026-04-15 07:24 | 34.19649 | 118.06894 | 33052 ft | 479 kts | 152° |
| 2026-04-15 07:24 | 34.14278 | 118.11624 | 33054 ft | 479 kts | 152° |
| 2026-04-15 07:25 | 34.08892 | 118.16344 | 33053 ft | 478 kts | 152° |
| 2026-04-15 07:25 | 34.03512 | 118.21031 | 33057 ft | 477 kts | 152° |
| 2026-04-15 07:26 | 33.98132 | 118.25713 | 33056 ft | 476 kts | 152° |
| 2026-04-15 07:26 | 33.92725 | 118.30433 | 33060 ft | 478 kts | 152° |
| 2026-04-15 07:27 | 33.87359 | 118.35141 | 33051 ft | 476 kts | 152° |
| 2026-04-15 07:27 | 33.82031 | 118.39805 | 33055 ft | 477 kts | 152° |
| 2026-04-15 07:28 | 33.76621 | 118.44535 | 33046 ft | 477 kts | 152° |
| 2026-04-15 07:28 | 33.71241 | 118.49231 | 33041 ft | 477 kts | 152° |
| 2026-04-15 07:29 | 33.65870 | 118.53909 | 33045 ft | 477 kts | 152° |
| 2026-04-15 07:29 | 33.60488 | 118.58591 | 33042 ft | 478 kts | 152° |
| 2026-04-15 07:30 | 33.55107 | 118.63268 | 33043 ft | 477 kts | 153° |
| 2026-04-15 07:30 | 33.49692 | 118.67967 | 33041 ft | 476 kts | 153° |
| 2026-04-15 07:31 | 33.44330 | 118.72611 | 33044 ft | 476 kts | 153° |
| 2026-04-15 07:31 | 33.38970 | 118.77264 | 33049 ft | 475 kts | 153° |
| 2026-04-15 07:32 | 33.33605 | 118.81918 | 33043 ft | 476 kts | 154° |
| 2026-04-15 07:32 | 33.28244 | 118.86562 | 33045 ft | 477 kts | 153° |
| 2026-04-15 07:33 | 33.22868 | 118.91261 | 33046 ft | 476 kts | 154° |
| 2026-04-15 07:33 | 33.17491 | 118.95945 | 33040 ft | 477 kts | 154° |
| 2026-04-15 07:34 | 33.12114 | 119.00589 | 33051 ft | 478 kts | 154° |
| 2026-04-15 07:34 | 33.06708 | 119.05254 | 33052 ft | 478 kts | 154° |
| 2026-04-15 07:35 | 33.01337 | 119.09888 | 33046 ft | 477 kts | 154° |
| 2026-04-15 07:35 | 32.95945 | 119.14529 | 33042 ft | 479 kts | 154° |
| 2026-04-15 07:36 | 32.90569 | 119.19186 | 33048 ft | 477 kts | 154° |
| 2026-04-15 07:36 | 32.85225 | 119.23854 | 33052 ft | 475 kts | 154° |
| 2026-04-15 07:37 | 32.79890 | 119.28498 | 33040 ft | 479 kts | 154° |
| 2026-04-15 07:37 | 32.74519 | 119.33176 | 33042 ft | 477 kts | 154° |
| 2026-04-15 07:38 | 32.69168 | 119.37819 | 33047 ft | 480 kts | 154° |
| 2026-04-15 07:38 | 32.63775 | 119.42499 | 33050 ft | 479 kts | 154° |
| 2026-04-15 07:39 | 32.58424 | 119.47135 | 33044 ft | 479 kts | 154° |
| 2026-04-15 07:39 | 32.53050 | 119.51786 | 33046 ft | 477 kts | 154° |
| 2026-04-15 07:40 | 32.47690 | 119.56412 | 33045 ft | 478 kts | 154° |
| 2026-04-15 07:40 | 32.42268 | 119.61065 | 33040 ft | 478 kts | 154° |
| 2026-04-15 07:41 | 32.36905 | 119.65642 | 33038 ft | 478 kts | 155° |
| 2026-04-15 07:41 | 32.31520 | 119.70235 | 33043 ft | 479 kts | 155° |
| 2026-04-15 07:42 | 32.26077 | 119.74873 | 33040 ft | 482 kts | 155° |
| 2026-04-15 07:42 | 32.20637 | 119.79511 | 33035 ft | 482 kts | 154° |
| 2026-04-15 07:43 | 32.15193 | 119.84161 | 33037 ft | 482 kts | 154° |
| 2026-04-15 07:43 | 32.09794 | 119.88775 | 32833 ft | 481 kts | 154° |
| 2026-04-15 07:44 | 32.07067 | 119.91093 | 32520 ft | 482 kts | 154° |
| 2026-04-15 07:44 | 32.04361 | 119.93397 | 31986 ft | 479 kts | 154° |
| 2026-04-15 07:44 | 32.01682 | 119.95688 | 31540 ft | 474 kts | 153° |
| 2026-04-15 07:44 | 31.99052 | 119.97956 | 31137 ft | 467 kts | 153° |
| 2026-04-15 07:45 | 31.96420 | 120.00216 | 30235 ft | 472 kts | 153° |
| 2026-04-15 07:45 | 31.93741 | 120.02504 | 29203 ft | 479 kts | 152° |
| 2026-04-15 07:45 | 31.91003 | 120.04845 | 28323 ft | 482 kts | 152° |
| 2026-04-15 07:45 | 31.88315 | 120.07151 | 27823 ft | 483 kts | 151° |
| 2026-04-15 07:46 | 31.85590 | 120.09491 | 27323 ft | 485 kts | 150° |
| 2026-04-15 07:46 | 31.82848 | 120.11848 | 26821 ft | 485 kts | 150° |
| 2026-04-15 07:46 | 31.80149 | 120.14166 | 26331 ft | 486 kts | 150° |
| 2026-04-15 07:46 | 31.77402 | 120.16516 | 25825 ft | 485 kts | 149° |
| 2026-04-15 07:47 | 31.74666 | 120.18853 | 25325 ft | 486 kts | 149° |
| 2026-04-15 07:47 | 31.71924 | 120.21163 | 24823 ft | 486 kts | 149° |
| 2026-04-15 07:47 | 31.69177 | 120.23446 | 24331 ft | 481 kts | 150° |
| 2026-04-15 07:47 | 31.66427 | 120.25722 | 23830 ft | 477 kts | 149° |
| 2026-04-15 07:48 | 31.63740 | 120.27947 | 23340 ft | 473 kts | 149° |
| 2026-04-15 07:48 | 31.61152 | 120.30291 | 22836 ft | 474 kts | 141° |
| 2026-04-15 07:48 | 31.58994 | 120.33226 | 22351 ft | 476 kts | 127° |
| 2026-04-15 07:48 | 31.57432 | 120.36647 | 21862 ft | 478 kts | 114° |
| 2026-04-15 07:49 | 31.56299 | 120.40321 | 21376 ft | 474 kts | 110° |
| 2026-04-15 07:49 | 31.55279 | 120.43931 | 20902 ft | 470 kts | 109° |
| 2026-04-15 07:49 | 31.54257 | 120.47568 | 20415 ft | 466 kts | 109° |
| 2026-04-15 07:49 | 31.53233 | 120.51151 | 19930 ft | 462 kts | 109° |
| 2026-04-15 07:50 | 31.52202 | 120.54703 | 19671 ft | 459 kts | 109° |
| 2026-04-15 07:50 | 31.51160 | 120.58257 | 19648 ft | 460 kts | 110° |
| 2026-04-15 07:50 | 31.50117 | 120.61786 | 19643 ft | 461 kts | 110° |
| 2026-04-15 07:50 | 31.49063 | 120.65344 | 19457 ft | 460 kts | 110° |
| 2026-04-15 07:51 | 31.48011 | 120.68886 | 19213 ft | 457 kts | 110° |
| 2026-04-15 07:51 | 31.46969 | 120.72383 | 18934 ft | 455 kts | 110° |
| 2026-04-15 07:51 | 31.45933 | 120.75858 | 18585 ft | 453 kts | 110° |
| 2026-04-15 07:51 | 31.44890 | 120.79349 | 18142 ft | 449 kts | 110° |
| 2026-04-15 07:52 | 31.43851 | 120.82741 | 17645 ft | 446 kts | 110° |
| 2026-04-15 07:52 | 31.42796 | 120.86120 | 17115 ft | 442 kts | 110° |
| 2026-04-15 07:52 | 31.41744 | 120.89489 | 16564 ft | 438 kts | 110° |
| 2026-04-15 07:52 | 31.40650 | 120.92797 | 15999 ft | 435 kts | 114° |
| 2026-04-15 07:53 | 31.39231 | 120.95896 | 15460 ft | 430 kts | 123° |
| 2026-04-15 07:53 | 31.37495 | 120.98682 | 15399 ft | 422 kts | 130° |
| 2026-04-15 07:53 | 31.35610 | 121.01371 | 15348 ft | 419 kts | 130° |
| 2026-04-15 07:53 | 31.33760 | 121.03957 | 14946 ft | 417 kts | 131° |
| 2026-04-15 07:54 | 31.31886 | 121.06578 | 14604 ft | 414 kts | 131° |
| 2026-04-15 07:54 | 31.30043 | 121.09167 | 14020 ft | 413 kts | 130° |
| 2026-04-15 07:54 | 31.28218 | 121.11734 | 13461 ft | 410 kts | 130° |
| 2026-04-15 07:54 | 31.26424 | 121.14268 | 12966 ft | 405 kts | 130° |
| 2026-04-15 07:55 | 31.24619 | 121.16820 | 12751 ft | 403 kts | 130° |
| 2026-04-15 07:55 | 31.22826 | 121.19353 | 12755 ft | 405 kts | 130° |
| 2026-04-15 07:55 | 31.19248 | 121.24405 | 12756 ft | 405 kts | 130° |
| 2026-04-15 07:56 | 31.17432 | 121.26966 | 12761 ft | 406 kts | 130° |
| 2026-04-15 07:56 | 31.15634 | 121.29497 | 12763 ft | 405 kts | 130° |
| 2026-04-15 07:56 | 31.13854 | 121.32054 | 12763 ft | 405 kts | 127° |
| 2026-04-15 07:56 | 31.12400 | 121.34859 | 12764 ft | 407 kts | 116° |
| 2026-04-15 07:57 | 31.11375 | 121.37947 | 12642 ft | 406 kts | 107° |
| 2026-04-15 07:57 | 31.10634 | 121.41086 | 12371 ft | 404 kts | 104° |
| 2026-04-15 07:57 | 31.09939 | 121.44258 | 12064 ft | 401 kts | 104° |
| 2026-04-15 07:57 | 31.09256 | 121.47379 | 11624 ft | 397 kts | 104° |
| 2026-04-15 07:58 | 31.08560 | 121.50500 | 11167 ft | 390 kts | 104° |
| 2026-04-15 07:58 | 31.07891 | 121.53451 | 10842 ft | 367 kts | 104° |
| 2026-04-15 07:58 | 31.07249 | 121.56259 | 10405 ft | 348 kts | 104° |
| 2026-04-15 07:58 | 31.06636 | 121.58927 | 10021 ft | 330 kts | 104° |
| 2026-04-15 07:59 | 31.06061 | 121.61419 | 9691 ft | 312 kts | 104° |
| 2026-04-15 07:59 | 31.05508 | 121.63809 | 9245 ft | 301 kts | 104° |
| 2026-04-15 07:59 | 31.04974 | 121.66113 | 8658 ft | 296 kts | 104° |
| 2026-04-15 07:59 | 31.04433 | 121.68428 | 8015 ft | 293 kts | 106° |
| 2026-04-15 08:00 | 31.03512 | 121.70502 | 7356 ft | 291 kts | 134° |
| 2026-04-15 08:00 | 31.01840 | 121.71738 | 6998 ft | 286 kts | 161° |
| 2026-04-15 08:00 | 30.99928 | 121.72414 | 6883 ft | 286 kts | 164° |
| 2026-04-15 08:00 | 30.98031 | 121.73078 | 6881 ft | 286 kts | 163° |
| 2026-04-15 08:01 | 30.96105 | 121.73779 | 6874 ft | 286 kts | 162° |
| 2026-04-15 08:01 | 30.94209 | 121.74486 | 6885 ft | 286 kts | 162° |
| 2026-04-15 08:01 | 30.92327 | 121.75193 | 6722 ft | 282 kts | 162° |
| 2026-04-15 08:01 | 30.90458 | 121.75896 | 6302 ft | 283 kts | 162° |
| 2026-04-15 08:02 | 30.88574 | 121.76603 | 5917 ft | 283 kts | 161° |
| 2026-04-15 08:02 | 30.86709 | 121.77306 | 5544 ft | 281 kts | 161° |
| 2026-04-15 08:02 | 30.84870 | 121.78001 | 5203 ft | 279 kts | 160° |
| 2026-04-15 08:02 | 30.83019 | 121.78699 | 4832 ft | 278 kts | 160° |
| 2026-04-15 08:03 | 30.81174 | 121.79395 | 4510 ft | 274 kts | 159° |
| 2026-04-15 08:03 | 30.79533 | 121.80367 | 4306 ft | 260 kts | 133° |
| 2026-04-15 08:03 | 30.78532 | 121.82045 | 4134 ft | 244 kts | 108° |
| 2026-04-15 08:03 | 30.78250 | 121.83903 | 3952 ft | 230 kts | 83° |
| 2026-04-15 08:04 | 30.78678 | 121.85644 | 3783 ft | 217 kts | 58° |
| 2026-04-15 08:04 | 30.79620 | 121.86940 | 3602 ft | 206 kts | 39° |
| 2026-04-15 08:04 | 30.80715 | 121.87924 | 3471 ft | 189 kts | 37° |
| 2026-04-15 08:04 | 30.81734 | 121.88814 | 3277 ft | 177 kts | 37° |
| 2026-04-15 08:05 | 30.82711 | 121.89611 | 3034 ft | 170 kts | 25° |
| 2026-04-15 08:05 | 30.83876 | 121.89826 | 3010 ft | 174 kts | 2° |
| 2026-04-15 08:05 | 30.85106 | 121.89647 | 2993 ft | 177 kts | 352° |
| 2026-04-15 08:05 | 30.86301 | 121.89294 | 2984 ft | 179 kts | 349° |
| 2026-04-15 08:06 | 30.87504 | 121.88880 | 2979 ft | 179 kts | 348° |
| 2026-04-15 08:06 | 30.88692 | 121.88451 | 2976 ft | 180 kts | 347° |
| 2026-04-15 08:06 | 30.89899 | 121.88004 | 2978 ft | 181 kts | 347° |
| 2026-04-15 08:06 | 30.91092 | 121.87558 | 2978 ft | 180 kts | 347° |
| 2026-04-15 08:07 | 30.92293 | 121.87104 | 2978 ft | 180 kts | 347° |
| 2026-04-15 08:07 | 30.93479 | 121.86655 | 2973 ft | 180 kts | 346° |
| 2026-04-15 08:07 | 30.94667 | 121.86204 | 2968 ft | 179 kts | 346° |
| 2026-04-15 08:07 | 30.95865 | 121.85747 | 2968 ft | 179 kts | 347° |
| 2026-04-15 08:08 | 30.97039 | 121.85301 | 2956 ft | 174 kts | 347° |
| 2026-04-15 08:08 | 30.98122 | 121.84885 | 2915 ft | 155 kts | 347° |
| 2026-04-15 08:08 | 30.99132 | 121.84500 | 2744 ft | 149 kts | 348° |
| 2026-04-15 08:08 | 31.00116 | 121.84131 | 2533 ft | 147 kts | 347° |
| 2026-04-15 08:09 | 31.01087 | 121.83765 | 2340 ft | 146 kts | 348° |
| 2026-04-15 08:09 | 31.02057 | 121.83400 | 2146 ft | 146 kts | 348° |
| 2026-04-15 08:09 | 31.03028 | 121.83033 | 1952 ft | 145 kts | 347° |
| 2026-04-15 08:09 | 31.03989 | 121.82670 | 1766 ft | 145 kts | 348° |
| 2026-04-15 08:10 | 31.04949 | 121.82305 | 1571 ft | 145 kts | 349° |
| 2026-04-15 08:10 | 31.05903 | 121.81946 | 1377 ft | 144 kts | 347° |
| 2026-04-15 08:10 | 31.06874 | 121.81580 | 1196 ft | 144 kts | 346° |
| 2026-04-15 08:10 | 31.07824 | 121.81222 | 999 ft | 143 kts | 345° |
| 2026-04-15 08:11 | 31.08781 | 121.80861 | 813 ft | 143 kts | 346° |
| 2026-04-15 08:11 | 31.09729 | 121.80502 | 622 ft | 143 kts | 346° |
| 2026-04-15 08:11 | 31.10683 | 121.80144 | 437 ft | 143 kts | 345° |
| 2026-04-15 08:11 | 31.11627 | 121.79786 | 234 ft | 144 kts | 346° |
| 2026-04-15 08:12 | 31.12585 | 121.79427 | 62 ft | 140 kts | 343° |
| 2026-04-15 08:12 | 31.13439 | 121.79109 | 25 ft | 109 kts | 342° |
| 2026-04-15 08:12 | 31.13995 | 121.78893 | 25 ft | 59 kts | 340° |
| 2026-04-15 08:12 | 31.14288 | 121.78784 | 23 ft | 40 kts | 343° |
| 2026-04-15 08:13 | 31.14527 | 121.78741 | 23 ft | 22 kts | 7° |
| 2026-04-15 08:13 | 31.14673 | 121.78767 | 23 ft | 16 kts | 14° |
| 2026-04-15 08:13 | 31.14747 | 121.78866 | 22 ft | 17 kts | 72° |
| 2026-04-15 08:13 | 31.14783 | 121.78999 | 22 ft | 17 kts | 73° |
| 2026-04-15 08:14 | 31.14818 | 121.79127 | 24 ft | 15 kts | 72° |
| 2026-04-15 08:14 | 31.14853 | 121.79246 | 24 ft | 15 kts | 71° |
| 2026-04-15 08:14 | 31.14879 | 121.79367 | 25 ft | 15 kts | 101° |
| 2026-04-15 08:14 | 31.14800 | 121.79429 | 27 ft | 13 kts | 160° |
| 2026-04-15 08:15 | 31.14709 | 121.79465 | 27 ft | 13 kts | 161° |
| 2026-04-15 08:15 | 31.14616 | 121.79500 | 27 ft | 14 kts | 162° |
| 2026-04-15 08:15 | 31.14515 | 121.79538 | 26 ft | 15 kts | 162° |
| 2026-04-15 08:15 | 31.14421 | 121.79575 | 25 ft | 12 kts | 152° |
| 2026-04-15 08:16 | 31.14403 | 121.79665 | 26 ft | 11 kts | 72° |
| 2026-04-15 08:16 | 31.14428 | 121.79753 | 28 ft | 11 kts | 72° |
| 2026-04-15 08:16 | 31.14451 | 121.79836 | 30 ft | 9 kts | 72° |
| 2026-04-15 08:16 | 31.14472 | 121.79915 | 30 ft | 10 kts | 72° |
| 2026-04-15 08:17 | 31.14498 | 121.80009 | 28 ft | 13 kts | 70° |
| 2026-04-15 08:17 | 31.14525 | 121.80096 | 28 ft | 10 kts | 65° |
| 2026-04-15 08:17 | 31.14586 | 121.80106 | 30 ft | 9 kts | 341° |
| 2026-04-15 08:17 | 31.14611 | 121.80091 | 30 ft | 0 kts | 304° |
| 2026-04-15 08:18 | 31.14612 | 121.80082 | 30 ft | 1 kts | 268° |
| 2026-04-15 08:18 | 31.14606 | 121.80061 | 30 ft | 3 kts | 251° |
| 2026-04-15 08:18 | 31.14599 | 121.80038 | 30 ft | 2 kts | 253° |
| 2026-04-15 08:18 | 31.14599 | 121.80035 | 30 ft | 0 kts | 253° |